M I D A S
Marine Information and Data Acquisition System
Tripno 1075 of the Zeeleeuw from 2006-04-25 06:35:23 to 2006-04-25 15:41:12
Back to CruiseResearch ActivitiesStationsMapUnderway DataData graphs

EquipmentUnitsComment
TimeDGPSUTC
LatitudeDGPSDM.mWGS84
LongitudeDGPSDM.mWGS84
TemperatureSBE03/SBE38deg celciusITS90
ConductivitySBE21S/mITS90
SalinitySBE21 Practical Salinity Units
ChlorophylAChelsea fluorimeterg/lCalibrated in Aceton
Missing or incorrect values are displayed as -999
Sea surface data collected by the RV Zeeleeuw from 2006-04-25 06:35:04 to 2006-04-25 15:53:21
                                                                                    Next 1000 lines
Time Latitude Longitude Temperature Conductivity Salinity ChlorophylA
2006-04-25 06:35:16 51°13.601 2°56.096 10.9131 3.365806 29.543547 30.501076
2006-04-25 06:35:20 51°13.601 2°56.095 10.9164 3.362857 29.511023 30.568494
2006-04-25 06:35:26 51°13.602 2°56.092 10.9129 3.363805 29.519597 30.534785
2006-04-25 06:35:30 51°13.602 2°56.09 10.9088 3.366437 29.553546 30.534785
2006-04-25 06:35:36 51°13.604 2°56.085 10.9305 3.366437 29.553546 30.534785
2006-04-25 06:35:41 51°13.605 2°56.081 10.903 3.36549 29.546895 30.501076
2006-04-25 06:35:46 51°13.606 2°56.076 10.9081 3.355486 29.450873 30.568494
2006-04-25 06:35:51 51°13.607 2°56.071 10.9096 3.354643 29.44396 30.501076
2006-04-25 06:35:56 51°13.609 2°56.064 10.8868 3.340006 29.301028 30.568494
2006-04-25 06:36:00 51°13.61 2°56.059 10.89 3.328844 29.19385 30.568494
2006-04-25 06:36:06 51°13.612 2°56.05 10.8849 3.328844 29.19385 30.568494
2006-04-25 06:36:11 51°13.614 2°56.043 10.8621 3.327475 29.178017 30.871879
2006-04-25 06:36:16 51°13.616 2°56.034 10.8639 3.326633 29.172371 31.478648
2006-04-25 06:36:21 51°13.617 2°56.026 10.8621 3.329792 29.20623 31.546067
2006-04-25 06:36:26 51°13.619 2°56.017 10.8493 3.323685 29.146904 31.748324
2006-04-25 06:36:31 51°13.621 2°56.008 10.8441 3.336005 29.27487 31.883161
2006-04-25 06:36:36 51°13.623 2°55.998 10.8344 3.336005 29.27487 31.883161
2006-04-25 06:36:40 51°13.625 2°55.991 10.8363 3.350431 29.420908 31.95058
2006-04-25 06:36:46 51°13.627 2°55.98 10.841 3.341165 29.335239 32.017999
2006-04-25 06:36:51 51°13.629 2°55.971 10.8394 3.339375 29.327398 32.119127
2006-04-25 06:36:56 51°13.632 2°55.961 10.8475 3.329477 29.238755 32.051708
2006-04-25 06:37:01 51°13.634 2°55.952 10.8352 3.329266 29.243072 32.051708
2006-04-25 06:37:06 51°13.636 2°55.942 10.8417 3.329266 29.243072 32.051708
2006-04-25 06:37:11 51°13.639 2°55.933 10.8543 3.334636 29.301707 32.017999
2006-04-25 06:37:16 51°13.642 2°55.923 10.8427 3.333373 29.293874 31.95058
2006-04-25 06:37:20 51°13.644 2°55.916 10.8539 3.331478 29.276699 31.883161
2006-04-25 06:37:26 51°13.648 2°55.904 10.8212 3.313471 29.10086 31.883161
2006-04-25 06:37:31 51°13.652 2°55.895 10.831 3.317367 29.138757 31.849452
2006-04-25 06:37:36 51°13.655 2°55.885 10.829 3.317367 29.138757 31.849452
2006-04-25 06:37:41 51°13.659 2°55.875 10.8135 3.315367 29.121199 31.748324
2006-04-25 06:37:46 51°13.663 2°55.866 10.817 3.312102 29.085646 31.714614
2006-04-25 06:37:51 51°13.667 2°55.856 10.8061 3.311049 29.076673 31.680905
2006-04-25 06:37:56 51°13.671 2°55.846 10.8044 3.312945 29.098275 31.647195
2006-04-25 06:38:01 51°13.674 2°55.837 10.8049 3.315683 29.131252 31.647195
2006-04-25 06:38:06 51°13.678 2°55.828 10.7983 3.315683 29.131252 31.647195
2006-04-25 06:38:11 51°13.681 2°55.82 10.8054 3.318842 29.163262 31.613486
2006-04-25 06:38:16 51°13.685 2°55.812 10.7925 3.321053 29.189235 31.748324
2006-04-25 06:38:21 51°13.688 2°55.804 10.8072 3.321895 29.202527 31.782033
2006-04-25 06:38:26 51°13.69 2°55.797 10.8192 3.322738 29.21455 31.95058
2006-04-25 06:38:31 51°13.693 2°55.789 10.8292 3.322422 29.217207 32.119127
2006-04-25 06:38:36 51°13.696 2°55.782 10.8389 3.322422 29.217207 32.119127
2006-04-25 06:38:41 51°13.698 2°55.776 10.8412 3.321896 29.215264 32.152836
2006-04-25 06:38:46 51°13.7 2°55.769 10.8526 3.322106 29.219227 32.085418
2006-04-25 06:38:51 51°13.702 2°55.763 10.8653 3.322738 29.226657 32.152836
2006-04-25 06:38:56 51°13.704 2°55.757 10.8674 3.320948 29.208581 32.152836
2006-04-25 06:39:01 51°13.705 2°55.752 10.8633 3.315051 29.146062 32.119127
2006-04-25 06:39:06 51°13.706 2°55.747 10.8771 3.315051 29.146062 32.119127
2006-04-25 06:39:10 51°13.707 2°55.743 10.8802 3.301362 29.006493 32.253965
2006-04-25 06:39:16 51°13.708 2°55.74 10.8737 3.292939 28.916362 32.321383
2006-04-25 06:39:20 51°13.708 2°55.738 10.8773 3.278092 28.766427 32.388802
2006-04-25 06:39:26 51°13.709 2°55.739 10.87 3.266721 28.647879 32.456221
2006-04-25 06:39:31 51°13.709 2°55.74 10.8754 3.262404 28.601 32.52364
2006-04-25 06:39:35 51°13.71 2°55.742 10.8849 3.262404 28.601 32.52364
2006-04-25 06:39:40 51°13.711 2°55.746 10.8947 3.25935 28.568265 32.591059
2006-04-25 06:39:46 51°13.713 2°55.75 10.8989 3.257981 28.548773 32.658477
2006-04-25 06:39:50 51°13.714 2°55.752 10.8949 3.254823 28.516282 32.759606
2006-04-25 06:39:55 51°13.715 2°55.755 10.9091 3.252612 28.496086 32.827024
2006-04-25 06:40:00 51°13.717 2°55.758 10.9253 3.252085 28.491603 32.827024
2006-04-25 06:40:06 51°13.718 2°55.76 10.9277 3.252085 28.491603 32.827024
2006-04-25 06:40:10 51°13.719 2°55.76 10.9327 3.250717 28.475854 32.827024
2006-04-25 06:40:15 51°13.719 2°55.761 10.9234 3.243346 28.398243 32.827024
2006-04-25 06:40:20 51°13.719 2°55.761 10.9359 3.238819 28.349452 32.827024
2006-04-25 06:40:26 51°13.718 2°55.761 10.9413 3.235239 28.311708 32.928153
2006-04-25 06:40:30 51°13.718 2°55.761 10.9336 3.226501 28.220981 33.029281
2006-04-25 06:40:36 51°13.716 2°55.759 10.9252 3.226501 28.220981 33.029281
2006-04-25 06:40:40 51°13.715 2°55.758 10.9232 3.20955 28.047884 33.197828
2006-04-25 06:40:46 51°13.713 2°55.756 10.9474 3.204496 27.99357 33.231537
2006-04-25 06:40:51 51°13.71 2°55.754 10.9207 3.202075 27.968354 33.265247
2006-04-25 06:40:56 51°13.707 2°55.751 10.9145 3.202707 27.971417 33.231537
2006-04-25 06:41:01 51°13.704 2°55.749 10.9054 3.205549 27.995226 33.265247
2006-04-25 06:41:06 51°13.702 2°55.747 10.9092 3.205549 27.995226 33.265247
2006-04-25 06:41:11 51°13.699 2°55.745 10.9206 3.208076 28.020241 33.231537
2006-04-25 06:41:16 51°13.697 2°55.743 10.9134 3.209866 28.039358 33.265247
2006-04-25 06:41:21 51°13.695 2°55.742 10.904 3.211761 28.054621 33.197828
2006-04-25 06:41:26 51°13.694 2°55.742 10.9059 3.21334 28.072928 33.332665
2006-04-25 06:41:31 51°13.694 2°55.741 10.8625 3.216288 28.103247 33.366375
2006-04-25 06:41:36 51°13.695 2°55.741 10.8695 3.216288 28.103247 33.366375
2006-04-25 06:41:40 51°13.696 2°55.741 10.8678 3.223026 28.178788 33.298956
2006-04-25 06:41:46 51°13.698 2°55.741 10.8675 3.231133 28.258436 33.231537
2006-04-25 06:41:51 51°13.7 2°55.74 10.8684 3.240609 28.349521 33.231537
2006-04-25 06:41:56 51°13.703 2°55.739 10.8932 3.249453 28.440089 33.231537
2006-04-25 06:42:01 51°13.706 2°55.738 10.9311 3.254086 28.489917 33.298956
2006-04-25 06:42:06 51°13.71 2°55.736 10.9557 3.254086 28.489917 33.298956
2006-04-25 06:42:11 51°13.714 2°55.733 10.9738 3.256613 28.528049 33.231537
2006-04-25 06:42:16 51°13.718 2°55.729 10.9651 3.257771 28.54611 33.231537
2006-04-25 06:42:20 51°13.722 2°55.726 10.9934 3.257876 28.550859 33.231537
2006-04-25 06:42:26 51°13.728 2°55.721 10.9781 3.254612 28.519827 33.164118
2006-04-25 06:42:31 51°13.733 2°55.716 10.9651 3.248084 28.447864 33.029281
2006-04-25 06:42:36 51°13.739 2°55.711 10.9461 3.248084 28.447864 33.029281
2006-04-25 06:42:40 51°13.744 2°55.707 10.9554 3.223553 28.191232 32.894443
2006-04-25 06:42:46 51°13.752 2°55.701 10.9609 3.196916 27.913677 32.928153
2006-04-25 06:42:51 51°13.758 2°55.696 11.007 3.178282 27.721785 32.961862
2006-04-25 06:42:56 51°13.765 2°55.691 11.0024 3.168597 27.618214 33.06299
2006-04-25 06:43:00 51°13.771 2°55.686 11.028 3.167333 27.603646 33.164118
2006-04-25 06:43:04 51°13.776 2°55.682 11.039 3.167333 27.603646 33.164118
2006-04-25 06:43:10 51°13.785 2°55.674 11.0537 3.177966 27.71152 33.164118
2006-04-25 06:43:16 51°13.794 2°55.667 11.0805 3.183862 27.773789 33.197828
2006-04-25 06:43:20 51°13.8 2°55.662 11.1339 3.182493 27.758782 33.164118
2006-04-25 06:43:26 51°13.809 2°55.655 11.0991 3.163649 27.565759 33.197828
2006-04-25 06:43:30 51°13.815 2°55.65 11.1132 3.150384 27.426735 33.231537
2006-04-25 06:43:35 51°13.823 2°55.643 11.0796 3.150384 27.426735 33.231537
2006-04-25 06:43:41 51°13.832 2°55.636 11.1009 3.140805 27.320956 33.298956
2006-04-25 06:43:44 51°13.837 2°55.632 11.0457 3.120698 27.116602 33.400084
2006-04-25 06:43:51 51°13.848 2°55.624 11.0439 3.095961 26.861224 33.400084
2006-04-25 06:43:56 51°13.857 2°55.618 11.0288 3.081646 26.704439 33.467503
2006-04-25 06:44:00 51°13.863 2°55.613 11.0075 3.072594 26.609777 33.534922
2006-04-25 06:44:06 51°13.873 2°55.605 10.997 3.072594 26.609777 33.534922
2006-04-25 06:44:11 51°13.882 2°55.599 10.9638 3.075751 26.637673 33.602341
2006-04-25 06:44:16 51°13.89 2°55.592 10.9747 3.08554 26.735931 33.63605
2006-04-25 06:44:21 51°13.899 2°55.586 10.9907 3.101119 26.891452 33.602341
2006-04-25 06:44:26 51°13.907 2°55.58 10.9556 3.114803 27.032502 33.534922
2006-04-25 06:44:31 51°13.916 2°55.573 10.9717 3.134067 27.232008 33.467503
2006-04-25 06:44:36 51°13.925 2°55.567 10.9612 3.134067 27.232008 33.467503
2006-04-25 06:44:40 51°13.931 2°55.562 10.9568 3.154805 27.445478 33.433794
2006-04-25 06:44:46 51°13.942 2°55.554 10.9672 3.175229 27.656325 33.366375
2006-04-25 06:44:50 51°13.949 2°55.549 10.9663 3.189125 27.798619 33.231537
2006-04-25 06:44:56 51°13.96 2°55.542 10.957 3.205865 27.966084 32.928153
2006-04-25 06:45:01 51°13.969 2°55.536 10.9815 3.215656 28.067874 32.692187
2006-04-25 06:45:06 51°13.978 2°55.529 10.9734 3.215656 28.067874 32.692187
2006-04-25 06:45:11 51°13.987 2°55.523 10.9859 3.221867 28.126023 32.52364
2006-04-25 06:45:16 51°13.996 2°55.517 10.9742 3.222078 28.134161 32.456221
2006-04-25 06:45:21 51°14.005 2°55.511 10.9583 3.219762 28.11057 32.388802
2006-04-25 06:45:26 51°14.014 2°55.504 10.9339 3.213024 28.048551 32.287674
2006-04-25 06:45:31 51°14.024 2°55.497 10.9263 3.209128 28.009726 32.321383
2006-04-25 06:45:36 51°14.033 2°55.491 10.9549 3.209128 28.009726 32.321383
2006-04-25 06:45:41 51°14.042 2°55.484 10.9084 3.205233 27.96727 32.422512
2006-04-25 06:45:44 51°14.048 2°55.48 10.9113 3.206496 27.974606 32.52364
2006-04-25 06:45:51 51°14.061 2°55.471 10.9316 3.210813 28.018083 32.557349
2006-04-25 06:45:54 51°14.067 2°55.467 10.9641 3.218183 28.098368 32.591059
2006-04-25 06:46:00 51°14.079 2°55.459 10.9815 3.227869 28.204791 32.557349
2006-04-25 06:46:05 51°14.088 2°55.452 10.9501 3.227869 28.204791 32.557349
2006-04-25 06:46:10 51°14.098 2°55.446 10.9481 3.236502 28.294405 32.48993
2006-04-25 06:46:16 51°14.109 2°55.437 10.9256 3.238713 28.318252 32.52364
2006-04-25 06:46:21 51°14.119 2°55.43 10.9348 3.236924 28.307703 32.591059
2006-04-25 06:46:26 51°14.128 2°55.424 10.9049 3.229975 28.240479 32.658477
2006-04-25 06:46:30 51°14.136 2°55.418 10.9005 3.226079 28.188102 32.725896
2006-04-25 06:46:36 51°14.147 2°55.41 10.9122 3.226079 28.188102 32.725896
2006-04-25 06:46:40 51°14.155 2°55.403 10.9193 3.223973 28.160411 33.029281
2006-04-25 06:46:46 51°14.166 2°55.394 10.9117 3.223868 28.164286 33.400084
2006-04-25 06:46:51 51°14.175 2°55.385 10.9317 3.225974 28.189533 33.737178
2006-04-25 06:46:56 51°14.183 2°55.377 10.954 3.229554 28.230271 34.107982
2006-04-25 06:47:01 51°14.192 2°55.367 10.9557 3.231449 28.257807 34.377657
2006-04-25 06:47:06 51°14.2 2°55.357 10.9689 3.231449 28.257807 34.377657
2006-04-25 06:47:11 51°14.208 2°55.347 10.9497 3.231765 28.267621 34.512494
2006-04-25 06:47:16 51°14.216 2°55.336 10.9742 3.230817 28.258452 34.613623
2006-04-25 06:47:21 51°14.224 2°55.326 10.9813 3.226922 28.221987 34.613623
2006-04-25 06:47:26 51°14.232 2°55.314 10.9812 3.217236 28.122792 34.546204
2006-04-25 06:47:31 51°14.24 2°55.303 10.9895 3.205655 28.003542 34.478785
2006-04-25 06:47:36 51°14.247 2°55.292 10.99 3.205655 28.003542 34.478785
2006-04-25 06:47:40 51°14.253 2°55.282 10.9983 3.194705 27.889301 34.478785
2006-04-25 06:47:46 51°14.262 2°55.266 10.964 3.18502 27.792199 34.445076
2006-04-25 06:47:51 51°14.27 2°55.253 10.9795 3.174808 27.689488 34.377657
2006-04-25 06:47:56 51°14.277 2°55.239 10.9925 3.166807 27.603367 34.310238
2006-04-25 06:48:01 51°14.285 2°55.226 11.01 3.162596 27.558011 34.411366
2006-04-25 06:48:06 51°14.293 2°55.212 11.0468 3.162596 27.558011 34.411366
2006-04-25 06:48:11 51°14.301 2°55.197 10.984 3.161122 27.540828 34.411366
2006-04-25 06:48:16 51°14.309 2°55.183 10.9946 3.160596 27.532773 34.478785
2006-04-25 06:48:20 51°14.315 2°55.172 10.9259 3.157017 27.500696 34.478785
2006-04-25 06:48:26 51°14.325 2°55.154 10.8918 3.151648 27.4502 34.445076
2006-04-25 06:48:31 51°14.333 2°55.139 10.9021 3.145858 27.392688 34.310238
2006-04-25 06:48:36 51°14.341 2°55.124 10.8883 3.145858 27.392688 34.310238
2006-04-25 06:48:41 51°14.349 2°55.11 10.8302 3.143436 27.355742 34.242819
2006-04-25 06:48:46 51°14.357 2°55.095 10.8663 3.141015 27.329495 34.20911
2006-04-25 06:48:50 51°14.364 2°55.083 10.8655 3.1427 27.354586 34.343947
2006-04-25 06:48:55 51°14.372 2°55.068 10.8849 3.152174 27.461225 34.478785
2006-04-25 06:49:00 51°14.381 2°55.054 10.8859 3.166176 27.62546 34.512494
2006-04-25 06:49:06 51°14.391 2°55.036 10.8633 3.166176 27.62546 34.512494
2006-04-25 06:49:10 51°14.398 2°55.023 10.8683 3.177967 27.753688 34.512494
2006-04-25 06:49:16 51°14.409 2°55.005 10.8438 3.190811 27.890472 34.478785
2006-04-25 06:49:20 51°14.415 2°54.992 10.8064 3.199549 27.987124 34.276529
2006-04-25 06:49:25 51°14.424 2°54.976 10.795 3.200075 27.996482 34.107982
2006-04-25 06:49:30 51°14.433 2°54.959 10.7562 3.19439 27.938443 34.006853
2006-04-25 06:49:35 51°14.441 2°54.942 10.7367 3.19439 27.938443 34.006853
2006-04-25 06:49:40 51°14.45 2°54.924 10.6866 3.186494 27.863303 33.939435
2006-04-25 06:49:45 51°14.457 2°54.905 10.668 3.182599 27.829278 33.939435
2006-04-25 06:49:51 51°14.466 2°54.882 10.6356 3.185547 27.865059 33.939435
2006-04-25 06:49:56 51°14.472 2°54.861 10.6166 3.19797 28.001103 34.006853
2006-04-25 06:50:00 51°14.476 2°54.845 10.5881 3.214394 28.172474 34.006853
2006-04-25 06:50:06 51°14.482 2°54.819 10.5628 3.214394 28.172474 34.006853
2006-04-25 06:50:10 51°14.486 2°54.802 10.5257 3.237662 28.424194 34.040563
2006-04-25 06:50:16 51°14.491 2°54.775 10.4975 3.256825 28.632287 34.040563
2006-04-25 06:50:20 51°14.494 2°54.757 10.4606 3.27662 28.868492 33.973144
2006-04-25 06:50:26 51°14.497 2°54.729 10.428 3.297995 29.099992 33.905725
2006-04-25 06:50:30 51°14.499 2°54.709 10.4103 3.31379 29.276813 33.905725
2006-04-25 06:50:35 51°14.5 2°54.684 10.3946 3.31379 29.276813 33.905725
2006-04-25 06:50:40 51°14.5 2°54.659 10.3746 3.329374 29.457779 33.872016
2006-04-25 06:50:46 51°14.499 2°54.628 10.356 3.340431 29.588259 33.804597
2006-04-25 06:50:50 51°14.497 2°54.608 10.3576 3.352963 29.740676 33.872016
2006-04-25 06:50:56 51°14.494 2°54.577 10.3372 3.369917 29.935696 33.838306
2006-04-25 06:51:00 51°14.49 2°54.556 10.3506 3.384977 30.111202 33.770888
2006-04-25 06:51:05 51°14.484 2°54.531 10.3285 3.384977 30.111202 33.770888
2006-04-25 06:51:10 51°14.476 2°54.506 10.3344 3.400142 30.286838 33.737178
2006-04-25 06:51:15 51°14.468 2°54.481 10.369 3.412885 30.438256 33.669759
2006-04-25 06:51:20 51°14.46 2°54.455 10.3215 3.423101 30.556191 33.568631
2006-04-25 06:51:24 51°14.453 2°54.435 10.3605 3.430789 30.642479 33.433794
2006-04-25 06:51:30 51°14.442 2°54.404 10.3545 3.439004 30.738155 33.332665
2006-04-25 06:51:36 51°14.431 2°54.375 10.3652 3.439004 30.738155 33.332665
2006-04-25 06:51:40 51°14.423 2°54.354 10.3724 3.444796 30.803094 33.231537
2006-04-25 06:51:45 51°14.414 2°54.329 10.3344 3.448483 30.845127 33.197828
2006-04-25 06:51:50 51°14.404 2°54.304 10.3598 3.451221 30.871619 33.0967
2006-04-25 06:51:56 51°14.392 2°54.275 10.3888 3.453327 30.895261 33.029281
2006-04-25 06:52:00 51°14.384 2°54.254 10.3211 3.455539 30.911057 32.894443
2006-04-25 06:52:05 51°14.375 2°54.229 10.2973 3.455539 30.911057 32.894443
2006-04-25 06:52:10 51°14.365 2°54.203 10.3151 3.457961 30.931677 32.827024
2006-04-25 06:52:16 51°14.354 2°54.172 10.3004 3.460384 30.951611 32.793315
2006-04-25 06:52:20 51°14.347 2°54.152 10.3114 3.462701 30.980095 32.793315
2006-04-25 06:52:25 51°14.338 2°54.126 10.2692 3.463543 30.98846 32.725896
2006-04-25 06:52:30 51°14.329 2°54.099 10.2484 3.465018 30.996238 32.759606
2006-04-25 06:52:36 51°14.318 2°54.068 10.24 3.465018 30.996238 32.759606
2006-04-25 06:52:40 51°14.31 2°54.047 10.2446 3.467651 31.035427 32.860734
2006-04-25 06:52:45 51°14.301 2°54.021 10.2531 3.469863 31.075286 32.894443
2006-04-25 06:52:50 51°14.292 2°53.995 10.2614 3.470706 31.091928 32.860734
2006-04-25 06:52:55 51°14.283 2°53.969 10.2661 3.471443 31.104773 32.860734
2006-04-25 06:53:00 51°14.274 2°53.943 10.2739 3.472813 31.133572 32.827024
2006-04-25 06:53:06 51°14.262 2°53.911 10.2497 3.472813 31.133572 32.827024
2006-04-25 06:53:10 51°14.255 2°53.891 10.2491 3.473866 31.157874 32.759606
2006-04-25 06:53:15 51°14.245 2°53.865 10.2357 3.474498 31.177311 32.725896
2006-04-25 06:53:20 51°14.235 2°53.839 10.2404 3.474603 31.181821 32.658477
2006-04-25 06:53:26 51°14.224 2°53.808 10.2437 3.474814 31.183919 32.624768
2006-04-25 06:53:30 51°14.216 2°53.787 10.2517 3.474603 31.181129 32.624768
2006-04-25 06:53:36 51°14.204 2°53.756 10.2535 3.474603 31.181129 32.624768
2006-04-25 06:53:40 51°14.196 2°53.735 10.2376 3.474393 31.174877 32.591059
2006-04-25 06:53:46 51°14.185 2°53.704 10.2457 3.474814 31.184612 32.591059
2006-04-25 06:53:50 51°14.178 2°53.683 10.2385 3.475551 31.199576 32.52364
2006-04-25 06:53:56 51°14.167 2°53.651 10.2646 3.475657 31.201319 32.422512
2006-04-25 06:54:00 51°14.16 2°53.63 10.2404 3.476183 31.208645 32.388802
2006-04-25 06:54:05 51°14.151 2°53.604 10.2323 3.476183 31.208645 32.388802
2006-04-25 06:54:10 51°14.141 2°53.577 10.2404 3.476815 31.212862 32.422512
2006-04-25 06:54:16 51°14.13 2°53.545 10.239 3.477553 31.220902 32.321383
2006-04-25 06:54:20 51°14.123 2°53.524 10.2317 3.47829 31.226861 32.321383
2006-04-25 06:54:25 51°14.113 2°53.498 10.2242 3.478816 31.234884 32.253965
2006-04-25 06:54:30 51°14.103 2°53.472 10.2364 3.480291 31.248191 32.321383
2006-04-25 06:54:36 51°14.091 2°53.441 10.2245 3.480291 31.248191 32.321383
2006-04-25 06:54:40 51°14.083 2°53.42 10.2322 3.48166 31.265309 32.253965
2006-04-25 06:54:45 51°14.073 2°53.394 10.2259 3.482924 31.279297 32.186546
2006-04-25 06:54:50 51°14.063 2°53.369 10.2245 3.483767 31.288392 32.119127
2006-04-25 06:54:56 51°14.05 2°53.338 10.2323 3.484925 31.302724 32.085418
2006-04-25 06:55:00 51°14.042 2°53.318 10.2363 3.486084 31.319843 32.017999
2006-04-25 06:55:05 51°14.031 2°53.294 10.2486 3.486084 31.319843 32.017999
2006-04-25 06:55:10 51°14.019 2°53.269 10.2572 3.486716 31.326146 31.984289
2006-04-25 06:55:15 51°14.008 2°53.245 10.2622 3.487453 31.334891 31.883161
2006-04-25 06:55:20 51°13.997 2°53.22 10.2627 3.488296 31.343296 31.815742
2006-04-25 06:55:26 51°13.983 2°53.191 10.2751 3.488823 31.349942 31.748324
2006-04-25 06:55:30 51°13.975 2°53.171 10.283 3.489033 31.349953 31.647195
2006-04-25 06:55:35 51°13.965 2°53.145 10.2946 3.489033 31.349953 31.647195
2006-04-25 06:55:40 51°13.955 2°53.119 10.2766 3.489454 31.352064 31.647195
2006-04-25 06:55:46 51°13.945 2°53.086 10.2923 3.482924 31.280687 31.579777
2006-04-25 06:55:50 51°13.938 2°53.064 10.2785 3.472181 31.166692 31.613486
2006-04-25 06:55:56 51°13.929 2°53.031 10.2815 3.488928 31.32871 31.546067
2006-04-25 06:56:00 51°13.922 2°53.009 10.2909 3.489875 31.330505 31.478648
2006-04-25 06:56:06 51°13.913 2°52.976 10.2827 3.489875 31.330505 31.478648
2006-04-25 06:56:10 51°13.908 2°52.953 10.2816 3.49135 31.33546 31.41123
2006-04-25 06:56:16 51°13.899 2°52.92 10.2816 3.493456 31.352969 31.37752
2006-04-25 06:56:20 51°13.893 2°52.898 10.2801 3.495563 31.371172 31.276392
2006-04-25 06:56:24 51°13.887 2°52.875 10.2786 3.496932 31.385511 31.208973
2006-04-25 06:56:31 51°13.875 2°52.837 10.2811 3.498196 31.397408 31.107845
2006-04-25 06:56:36 51°13.867 2°52.81 10.2792 3.498196 31.397408 31.107845
2006-04-25 06:56:40 51°13.861 2°52.788 10.2822 3.499249 31.40651 31.040426
2006-04-25 06:56:44 51°13.854 2°52.766 10.2843 3.500618 31.421548 30.973007
2006-04-25 06:56:50 51°13.844 2°52.733 10.2857 3.501988 31.437286 30.871879
2006-04-25 06:56:56 51°13.833 2°52.701 10.2879 3.503146 31.45023 30.80446
2006-04-25 06:57:00 51°13.827 2°52.679 10.2858 3.503568 31.455128 30.770751
2006-04-25 06:57:06 51°13.817 2°52.646 10.2883 3.503568 31.455128 30.770751
2006-04-25 06:57:10 51°13.81 2°52.624 10.3 3.503357 31.453028 30.703332
2006-04-25 06:57:15 51°13.802 2°52.596 10.3008 3.502936 31.44813 30.669623
2006-04-25 06:57:20 51°13.794 2°52.569 10.3013 3.502304 31.440436 30.635913
2006-04-25 06:57:26 51°13.783 2°52.537 10.2979 3.502093 31.437638 30.635913
2006-04-25 06:57:30 51°13.776 2°52.515 10.2999 3.501988 31.435193 30.534785
2006-04-25 06:57:35 51°13.766 2°52.489 10.3103 3.501988 31.435193 30.534785
2006-04-25 06:57:40 51°13.757 2°52.463 10.3105 3.502198 31.435898 30.501076
2006-04-25 06:57:46 51°13.745 2°52.431 10.3046 3.50262 31.436608 30.467366
2006-04-25 06:57:50 51°13.737 2°52.411 10.299 3.503251 31.43872 30.399947
2006-04-25 06:57:56 51°13.725 2°52.38 10.3044 3.504094 31.445023 30.332529
2006-04-25 06:58:00 51°13.717 2°52.359 10.3036 3.504831 31.452369 30.26511
2006-04-25 06:58:06 51°13.705 2°52.328 10.3102 3.504831 31.452369 30.26511
2006-04-25 06:58:10 51°13.697 2°52.308 10.3234 3.505463 31.457968 30.197691
2006-04-25 06:58:15 51°13.688 2°52.281 10.3252 3.505779 31.460418 30.197691
2006-04-25 06:58:20 51°13.678 2°52.255 10.3268 3.505779 31.45972 30.163982
2006-04-25 06:58:26 51°13.668 2°52.223 10.3292 3.505674 31.459369 30.062853
2006-04-25 06:58:31 51°13.659 2°52.196 10.3331 3.506095 31.462869 30.062853
2006-04-25 06:58:36 51°13.65 2°52.17 10.333 3.506095 31.462869 30.062853
2006-04-25 06:58:40 51°13.643 2°52.149 10.3299 3.506938 31.469868 29.995435
2006-04-25 06:58:46 51°13.633 2°52.117 10.3342 3.507886 31.475124 29.894306
2006-04-25 06:58:50 51°13.626 2°52.096 10.3327 3.509782 31.486332 29.793178
2006-04-25 06:58:56 51°13.616 2°52.064 10.3434 3.511361 31.495785 29.793178
2006-04-25 06:59:00 51°13.609 2°52.043 10.3329 3.513047 31.509776 29.624631
2006-04-25 06:59:04 51°13.602 2°52.021 10.3414 3.513047 31.509776 29.624631
2006-04-25 06:59:10 51°13.591 2°51.99 10.3377 3.515153 31.527263 29.557212
2006-04-25 06:59:15 51°13.583 2°51.963 10.3416 3.516944 31.543 29.523503
2006-04-25 06:59:20 51°13.574 2°51.937 10.3375 3.517892 31.553839 29.523503
2006-04-25 06:59:24 51°13.567 2°51.916 10.3428 3.518418 31.558385 29.456084
2006-04-25 06:59:30 51°13.556 2°51.885 10.3409 3.518418 31.557686 29.489794
2006-04-25 06:59:35 51°13.548 2°51.858 10.3434 3.518418 31.557686 29.489794
2006-04-25 06:59:40 51°13.539 2°51.832 10.3447 3.518102 31.554539 29.456084
2006-04-25 06:59:46 51°13.528 2°51.8 10.3531 3.517786 31.549993 29.456084
2006-04-25 06:59:50 51°13.521 2°51.779 10.3509 3.51747 31.546147 29.456084
2006-04-25 06:59:56 51°13.511 2°51.747 10.3631 3.517786 31.547896 29.456084
2006-04-25 07:00:00 51°13.503 2°51.726 10.3579 3.518418 31.552791 29.422375
2006-04-25 07:00:04 51°13.496 2°51.704 10.3585 3.518418 31.552791 29.422375
2006-04-25 07:00:10 51°13.486 2°51.672 10.3609 3.518418 31.552791 29.422375
2006-04-25 07:00:15 51°13.477 2°51.646 10.3552 3.518629 31.55419 29.456084
2006-04-25 07:00:20 51°13.468 2°51.62 10.3647 3.51884 31.552793 29.422375
2006-04-25 07:00:26 51°13.457 2°51.588 10.3639 3.519682 31.559086 29.422375
2006-04-25 07:00:30 51°13.45 2°51.567 10.367 3.520525 31.56398 29.422375
2006-04-25 07:00:35 51°13.44 2°51.541 10.3617 3.520525 31.56398 29.422375
2006-04-25 07:00:40 51°13.43 2°51.516 10.361 3.521262 31.569922 29.422375
2006-04-25 07:00:46 51°13.419 2°51.485 10.3662 3.521789 31.573767 29.456084
2006-04-25 07:00:51 51°13.409 2°51.46 10.3715 3.521894 31.574816 29.456084
2006-04-25 07:00:55 51°13.401 2°51.44 10.3698 3.522105 31.575514 29.422375
2006-04-25 07:01:00 51°13.391 2°51.415 10.3733 3.521999 31.573067 29.422375
2006-04-25 07:01:04 51°13.383 2°51.395 10.3799 3.521999 31.573067 29.422375
2006-04-25 07:01:10 51°13.371 2°51.364 10.3813 3.522421 31.573766 29.489794
2006-04-25 07:01:16 51°13.36 2°51.333 10.3771 3.521157 31.561184 29.489794
2006-04-25 07:01:20 51°13.352 2°51.312 10.3814 3.522421 31.574465 29.422375
2006-04-25 07:01:26 51°13.342 2°51.281 10.3856 3.522421 31.573066 29.456084
2006-04-25 07:01:30 51°13.334 2°51.26 10.4048 3.522315 31.569921 29.456084
2006-04-25 07:01:36 51°13.324 2°51.229 10.4004 3.522315 31.569921 29.456084
2006-04-25 07:01:40 51°13.317 2°51.208 10.4005 3.522315 31.567125 29.422375
2006-04-25 07:01:46 51°13.306 2°51.177 10.3939 3.52221 31.563981 29.456084
2006-04-25 07:01:50 51°13.299 2°51.156 10.4024 3.52242 31.563283 29.422375
2006-04-25 07:01:56 51°13.288 2°51.124 10.3954 3.523158 31.568523 29.456084
2006-04-25 07:02:00 51°13.281 2°51.103 10.4015 3.524738 31.579353 29.456084
2006-04-25 07:02:06 51°13.27 2°51.072 10.4009 3.524738 31.579353 29.456084
2006-04-25 07:02:10 51°13.263 2°51.051 10.4024 3.527476 31.601008 29.422375
2006-04-25 07:02:15 51°13.254 2°51.025 10.4056 3.53032 31.626505 29.456084
2006-04-25 07:02:20 51°13.245 2°50.998 10.4065 3.532216 31.643969 29.456084
2006-04-25 07:02:24 51°13.238 2°50.978 10.4107 3.533164 31.652701 29.422375
2006-04-25 07:02:30 51°13.227 2°50.946 10.4068 3.534112 31.662133 29.388665
2006-04-25 07:02:35 51°13.218 2°50.92 10.4079 3.534112 31.662133 29.388665
2006-04-25 07:02:40 51°13.209 2°50.894 10.4112 3.53506 31.670165 29.456084
2006-04-25 07:02:43 51°13.204 2°50.878 10.407 3.536008 31.678196 29.422375
2006-04-25 07:02:50 51°13.191 2°50.842 10.412 3.537061 31.687276 29.422375
2006-04-25 07:02:55 51°13.182 2°50.817 10.4162 3.538325 31.697749 29.422375
2006-04-25 07:03:00 51°13.172 2°50.791 10.4159 3.539273 31.70578 29.456084
2006-04-25 07:03:04 51°13.164 2°50.771 10.4164 3.539273 31.70578 29.456084
2006-04-25 07:03:10 51°13.152 2°50.741 10.422 3.5398 31.710319 29.456084
2006-04-25 07:03:16 51°13.14 2°50.711 10.417 3.540432 31.715906 29.422375
2006-04-25 07:03:20 51°13.131 2°50.691 10.421 3.541169 31.722541 29.489794
2006-04-25 07:03:26 51°13.119 2°50.661 10.4253 3.54159 31.726032 29.523503
2006-04-25 07:03:30 51°13.111 2°50.641 10.4301 3.54159 31.724629 29.523503
2006-04-25 07:03:36 51°13.1 2°50.61 10.4203 3.54159 31.724629 29.523503
2006-04-25 07:03:40 51°13.093 2°50.59 10.4252 3.541169 31.717631 29.557212
2006-04-25 07:03:46 51°13.082 2°50.558 10.4217 3.540326 31.708547 29.557212
2006-04-25 07:03:50 51°13.074 2°50.538 10.4272 3.539589 31.700511 29.557212
2006-04-25 07:03:56 51°13.063 2°50.507 10.4313 3.53822 31.685489 29.624631
2006-04-25 07:04:00 51°13.056 2°50.486 10.4341 3.536745 31.668022 29.624631
2006-04-25 07:04:06 51°13.045 2°50.454 10.4387 3.536745 31.668022 29.624631
2006-04-25 07:04:10 51°13.038 2°50.433 10.4482 3.535481 31.654053 29.658341
2006-04-25 07:04:16 51°13.027 2°50.402 10.4434 3.534428 31.642879 29.658341
2006-04-25 07:04:20 51°13.02 2°50.381 10.4508 3.533901 31.638342 29.658341
2006-04-25 07:04:24 51°13.013 2°50.36 10.4467 3.534112 31.639737 29.658341
2006-04-25 07:04:30 51°13.002 2°50.328 10.4526 3.534744 31.641825 29.590922
2006-04-25 07:04:35 51°12.993 2°50.302 10.4522 3.534744 31.641825 29.590922
2006-04-25 07:04:40 51°12.984 2°50.276 10.4596 3.53664 31.658577 29.590922
2006-04-25 07:04:43 51°12.979 2°50.26 10.451 3.538009 31.668692 29.523503
2006-04-25 07:04:50 51°12.966 2°50.224 10.4511 3.540221 31.687183 29.456084
2006-04-25 07:04:55 51°12.957 2°50.198 10.4474 3.542538 31.706019 29.456084
2006-04-25 07:05:00 51°12.947 2°50.172 10.4554 3.544855 31.729057 29.388665
2006-04-25 07:05:04 51°12.94 2°50.151 10.4532 3.544855 31.729057 29.388665
2006-04-25 07:05:10 51°12.929 2°50.12 10.4547 3.54633 31.740915 29.422375
2006-04-25 07:05:16 51°12.918 2°50.089 10.4557 3.546962 31.744393 29.422375
2006-04-25 07:05:20 51°12.911 2°50.068 10.4509 3.547594 31.748573 29.388665
2006-04-25 07:05:26 51°12.9 2°50.036 10.4553 3.548226 31.756258 29.388665
2006-04-25 07:05:30 51°12.893 2°50.015 10.4543 3.547699 31.751724 29.321247
2006-04-25 07:05:36 51°12.882 2°49.984 10.4621 3.547699 31.751724 29.321247
2006-04-25 07:05:40 51°12.875 2°49.962 10.4595 3.547067 31.744739 29.354956
2006-04-25 07:05:44 51°12.868 2°49.941 10.4594 3.546751 31.741598 29.354956
2006-04-25 07:05:51 51°12.855 2°49.905 10.4579 3.546435 31.737055 29.354956
2006-04-25 07:05:56 51°12.846 2°49.878 10.4609 3.546014 31.732867 29.388665
2006-04-25 07:06:00 51°12.839 2°49.857 10.4651 3.546119 31.733914 29.321247
2006-04-25 07:06:06 51°12.828 2°49.826 10.4713 3.546119 31.733914 29.321247
2006-04-25 07:06:10 51°12.821 2°49.805 10.4664 3.546119 31.732512 29.321247
2006-04-25 07:06:16 51°12.811 2°49.773 10.4711 3.546119 31.731811 29.287537
2006-04-25 07:06:20 51°12.804 2°49.752 10.4668 3.546225 31.731457 29.287537
2006-04-25 07:06:25 51°12.795 2°49.726 10.4676 3.546225 31.731457 29.321247
2006-04-25 07:06:30 51°12.786 2°49.7 10.4705 3.54633 31.731102 29.321247
2006-04-25 07:06:36 51°12.775 2°49.668 10.4707 3.54633 31.731102 29.321247
2006-04-25 07:06:40 51°12.767 2°49.648 10.4776 3.546119 31.727607 29.321247
2006-04-25 07:06:46 51°12.756 2°49.617 10.4814 3.546435 31.727946 29.354956
2006-04-25 07:06:50 51°12.749 2°49.596 10.4781 3.547067 31.732825 29.354956
2006-04-25 07:06:56 51°12.738 2°49.565 10.4783 3.54812 31.741892 29.422375
2006-04-25 07:07:00 51°12.731 2°49.544 10.48 3.549174 31.753761 29.422375
2006-04-25 07:07:06 51°12.72 2°49.512 10.4853 3.549174 31.753761 29.422375
2006-04-25 07:07:10 51°12.713 2°49.492 10.4853 3.549595 31.756546 29.489794
2006-04-25 07:07:15 51°12.704 2°49.466 10.4864 3.550122 31.758976 29.489794
2006-04-25 07:07:20 51°12.695 2°49.44 10.4896 3.550754 31.763153 29.523503
2006-04-25 07:07:26 51°12.684 2°49.409 10.4903 3.551386 31.76733 29.456084
2006-04-25 07:07:30 51°12.677 2°49.388 10.4913 3.55286 31.780581 29.422375
2006-04-25 07:07:35 51°12.668 2°49.362 10.495 3.55286 31.780581 29.422375
2006-04-25 07:07:40 51°12.659 2°49.336 10.4926 3.554335 31.795235 29.422375
2006-04-25 07:07:45 51°12.65 2°49.31 10.4961 3.557179 31.819286 29.354956
2006-04-25 07:07:50 51°12.642 2°49.283 10.4937 3.559391 31.839161 29.354956
2006-04-25 07:07:56 51°12.631 2°49.252 10.4925 3.561076 31.854505 29.354956
2006-04-25 07:08:00 51°12.624 2°49.232 10.4975 3.563394 31.877536 29.287537
2006-04-25 07:08:04 51°12.617 2°49.211 10.4926 3.563394 31.877536 29.287537
2006-04-25 07:08:10 51°12.606 2°49.179 10.4925 3.565395 31.896021 29.287537
2006-04-25 07:08:16 51°12.595 2°49.148 10.4958 3.56687 31.908567 29.253828
2006-04-25 07:08:20 51°12.588 2°49.127 10.4963 3.568345 31.921817 29.186409
2006-04-25 07:08:26 51°12.576 2°49.096 10.498 3.569503 31.934039 29.186409
2006-04-25 07:08:30 51°12.569 2°49.075 10.497 3.569819 31.936475 29.253828
2006-04-25 07:08:36 51°12.558 2°49.045 10.5042 3.569819 31.936475 29.253828
2006-04-25 07:08:40 51°12.551 2°49.024 10.4998 3.569293 31.93124 29.287537
2006-04-25 07:08:44 51°12.543 2°49.003 10.501 3.568555 31.924615 29.287537
2006-04-25 07:08:50 51°12.532 2°48.972 10.5108 3.567291 31.910643 29.253828
2006-04-25 07:08:55 51°12.523 2°48.946 10.5017 3.566554 31.902611 29.321247
2006-04-25 07:09:00 51°12.514 2°48.92 10.5042 3.5655 31.890736 29.321247
2006-04-25 07:09:04 51°12.507 2°48.899 10.5027 3.5655 31.890736 29.321247
2006-04-25 07:09:10 51°12.497 2°48.868 10.5053 3.564342 31.878518 29.388665
2006-04-25 07:09:15 51°12.488 2°48.842 10.5033 3.563604 31.869786 29.388665
2006-04-25 07:09:20 51°12.479 2°48.816 10.5071 3.562762 31.86071 29.456084
2006-04-25 07:09:26 51°12.468 2°48.785 10.5044 3.562762 31.8579 29.422375
2006-04-25 07:09:31 51°12.459 2°48.759 10.5092 3.563288 31.863132 29.489794
2006-04-25 07:09:35 51°12.452 2°48.738 10.5083 3.563288 31.863132 29.489794
2006-04-25 07:09:40 51°12.443 2°48.713 10.5088 3.564026 31.87116 29.489794
2006-04-25 07:09:46 51°12.432 2°48.681 10.5157 3.565184 31.88197 29.523503
2006-04-25 07:09:50 51°12.425 2°48.66 10.5147 3.566343 31.893482 29.489794
2006-04-25 07:09:56 51°12.414 2°48.63 10.5129 3.567186 31.901152 29.523503
2006-04-25 07:10:00 51°12.407 2°48.609 10.5168 3.567818 31.906728 29.557212
2006-04-25 07:10:05 51°12.398 2°48.583 10.5195 3.567818 31.906728 29.557212
2006-04-25 07:10:10 51°12.389 2°48.558 10.5122 3.568344 31.910554 29.523503
2006-04-25 07:10:16 51°12.378 2°48.527 10.5203 3.568766 31.91474 29.590922
2006-04-25 07:10:20 51°12.371 2°48.506 10.5193 3.569082 31.916473 29.69205
2006-04-25 07:10:25 51°12.362 2°48.48 10.5192 3.569187 31.914704 29.793178
2006-04-25 07:10:30 51°12.353 2°48.454 10.5167 3.569398 31.916094 29.928016
2006-04-25 07:10:36 51°12.342 2°48.423 10.5155 3.569398 31.916094 29.928016
2006-04-25 07:10:40 51°12.335 2°48.403 10.515 3.569503 31.915029 29.995435
2006-04-25 07:10:46 51°12.324 2°48.372 10.5154 3.569503 31.914326 30.163982
2006-04-25 07:10:50 51°12.317 2°48.351 10.5147 3.569924 31.918511 30.197691
2006-04-25 07:10:56 51°12.306 2°48.321 10.5146 3.569924 31.915697 30.298819
2006-04-25 07:11:00 51°12.299 2°48.3 10.5151 3.57003 31.917447 30.332529
2006-04-25 07:11:04 51°12.291 2°48.279 10.5115 3.57003 31.917447 30.332529
2006-04-25 07:11:10 51°12.281 2°48.249 10.5149 3.57024 31.920947 30.399947
2006-04-25 07:11:15 51°12.272 2°48.223 10.5204 3.570346 31.923401 30.467366
2006-04-25 07:11:20 51°12.263 2°48.197 10.5225 3.570346 31.922697 30.467366
2006-04-25 07:11:26 51°12.252 2°48.167 10.5149 3.57003 31.920261 30.534785
2006-04-25 07:11:30 51°12.245 2°48.146 10.5162 3.569924 31.919919 30.568494
2006-04-25 07:11:35 51°12.236 2°48.12 10.5175 3.569924 31.919919 30.568494
2006-04-25 07:11:40 51°12.227 2°48.094 10.5211 3.569608 31.916076 30.568494
2006-04-25 07:11:46 51°12.218 2°48.062 10.5225 3.569608 31.918187 30.602204
2006-04-25 07:11:50 51°12.211 2°48.041 10.5216 3.569503 31.915733 30.602204
2006-04-25 07:11:55 51°12.204 2°48.014 10.521 3.569608 31.913965 30.669623
2006-04-25 07:12:00 51°12.196 2°47.987 10.5227 3.569924 31.918511 30.669623
2006-04-25 07:12:06 51°12.188 2°47.955 10.5188 3.569924 31.918511 30.669623
2006-04-25 07:12:10 51°12.182 2°47.933 10.52 3.570346 31.922697 30.635913
2006-04-25 07:12:15 51°12.174 2°47.906 10.5186 3.570872 31.926522 30.602204
2006-04-25 07:12:20 51°12.167 2°47.879 10.5257 3.57161 31.931031 30.602204
2006-04-25 07:12:23 51°12.162 2°47.863 10.52 3.572874 31.94218 30.534785
2006-04-25 07:12:31 51°12.15 2°47.82 10.5259 3.574138 31.954737 30.568494
2006-04-25 07:12:36 51°12.142 2°47.794 10.5262 3.574138 31.954737 30.568494
2006-04-25 07:12:40 51°12.135 2°47.773 10.5317 3.575296 31.965544 30.534785
2006-04-25 07:12:44 51°12.129 2°47.751 10.5282 3.57635 31.977419 30.501076
2006-04-25 07:12:51 51°12.119 2°47.714 10.5287 3.577193 31.987202 30.467366
2006-04-25 07:12:56 51°12.112 2°47.686 10.5304 3.578035 31.992754 30.568494
2006-04-25 07:13:00 51°12.106 2°47.665 10.5349 3.578667 32.000445 30.501076
2006-04-25 07:13:06 51°12.098 2°47.632 10.5332 3.578667 32.000445 30.501076
2006-04-25 07:13:10 51°12.092 2°47.61 10.5324 3.57951 32.007407 30.501076
2006-04-25 07:13:15 51°12.085 2°47.583 10.5303 3.580037 32.010524 30.534785
2006-04-25 07:13:20 51°12.078 2°47.556 10.5296 3.580879 32.017486 30.568494
2006-04-25 07:13:26 51°12.07 2°47.523 10.5368 3.581722 32.025859 30.568494
2006-04-25 07:13:30 51°12.065 2°47.501 10.5325 3.582881 32.035255 30.568494
2006-04-25 07:13:35 51°12.057 2°47.474 10.5386 3.582881 32.035255 30.568494
2006-04-25 07:13:40 51°12.05 2°47.447 10.5423 3.583618 32.041169 30.635913
2006-04-25 07:13:46 51°12.042 2°47.414 10.5364 3.584566 32.049883 30.669623
2006-04-25 07:13:50 51°12.036 2°47.393 10.5394 3.585725 32.061396 30.703332
2006-04-25 07:13:56 51°12.027 2°47.36 10.5439 3.586673 32.071524 30.703332
2006-04-25 07:14:00 51°12.021 2°47.339 10.5433 3.58741 32.078145 30.770751
2006-04-25 07:14:06 51°12.013 2°47.306 10.5458 3.58741 32.078145 30.770751
2006-04-25 07:14:10 51°12.007 2°47.284 10.549 3.588253 32.085812 30.737042
2006-04-25 07:14:15 51°12 2°47.257 10.5452 3.58878 32.088218 30.770751
2006-04-25 07:14:20 51°11.993 2°47.23 10.5456 3.589306 32.092037 30.770751
2006-04-25 07:14:26 51°11.985 2°47.197 10.5483 3.589728 32.096931 30.770751
2006-04-25 07:14:31 51°11.978 2°47.17 10.554 3.590044 32.09795 30.80446
2006-04-25 07:14:36 51°11.97 2°47.143 10.5485 3.590044 32.09795 30.80446
2006-04-25 07:14:40 51°11.965 2°47.121 10.5476 3.590465 32.100722 30.770751
2006-04-25 07:14:45 51°11.958 2°47.094 10.5482 3.590781 32.101741 30.80446
2006-04-25 07:14:51 51°11.948 2°47.062 10.5491 3.591308 32.10556 30.770751
2006-04-25 07:14:56 51°11.941 2°47.035 10.5535 3.591624 32.108699 30.737042
2006-04-25 07:15:00 51°11.935 2°47.013 10.5546 3.59215 32.113225 30.703332
2006-04-25 07:15:06 51°11.926 2°46.981 10.5558 3.59215 32.113225 30.703332
2006-04-25 07:15:10 51°11.92 2°46.96 10.5523 3.592572 32.115997 30.770751
2006-04-25 07:15:16 51°11.911 2°46.927 10.5501 3.593414 32.12437 30.703332
2006-04-25 07:15:20 51°11.906 2°46.905 10.554 3.593836 32.128556 30.737042
2006-04-25 07:15:26 51°11.898 2°46.872 10.5586 3.594363 32.13379 30.703332
2006-04-25 07:15:30 51°11.893 2°46.85 10.5523 3.594573 32.134467 30.669623
2006-04-25 07:15:36 51°11.886 2°46.816 10.5545 3.594573 32.134467 30.669623
2006-04-25 07:15:40 51°11.881 2°46.794 10.5587 3.594784 32.13373 30.635913
2006-04-25 07:15:44 51°11.877 2°46.772 10.5582 3.595311 32.138255 30.501076
2006-04-25 07:15:50 51°11.87 2°46.738 10.5555 3.596048 32.145581 30.467366
2006-04-25 07:15:55 51°11.865 2°46.71 10.5561 3.596996 32.155 30.399947
2006-04-25 07:16:00 51°11.859 2°46.682 10.5598 3.597628 32.160572 30.298819
2006-04-25 07:16:06 51°11.852 2°46.647 10.5552 3.597628 32.160572 30.298819
2006-04-25 07:16:10 51°11.848 2°46.625 10.5541 3.59826 32.16756 30.26511
2006-04-25 07:16:15 51°11.842 2°46.597 10.5518 3.598681 32.171039 30.130272
2006-04-25 07:16:20 51°11.836 2°46.569 10.5525 3.599313 32.175902 30.062853
2006-04-25 07:16:26 51°11.829 2°46.535 10.553 3.600051 32.184646 29.995435
2006-04-25 07:16:30 51°11.825 2°46.512 10.5537 3.600683 32.189509 29.928016
2006-04-25 07:16:35 51°11.818 2°46.484 10.5545 3.600683 32.189509 29.928016
2006-04-25 07:16:40 51°11.812 2°46.456 10.5558 3.60142 32.197545 29.826888
2006-04-25 07:16:44 51°11.807 2°46.434 10.5541 3.602158 32.204164 29.793178
2006-04-25 07:16:50 51°11.799 2°46.4 10.5627 3.603106 32.215004 29.658341
2006-04-25 07:16:56 51°11.792 2°46.367 10.5634 3.603843 32.223043 29.590922
2006-04-25 07:17:00 51°11.787 2°46.344 10.5582 3.60437 32.230407 29.523503
2006-04-25 07:17:06 51°11.779 2°46.311 10.5605 3.60437 32.230407 29.523503
2006-04-25 07:17:10 51°11.774 2°46.288 10.5588 3.605107 32.236316 29.456084
2006-04-25 07:17:15 51°11.768 2°46.26 10.5578 3.605634 32.242262 29.388665
2006-04-25 07:17:20 51°11.762 2°46.232 10.5642 3.606055 32.24503 29.321247
2006-04-25 07:17:26 51°11.755 2°46.198 10.5626 3.606582 32.248845 29.287537
2006-04-25 07:17:30 51°11.751 2°46.175 10.5623 3.607109 32.251239 29.186409
2006-04-25 07:17:36 51°11.744 2°46.141 10.5618 3.607109 32.251239 29.186409
2006-04-25 07:17:40 51°11.74 2°46.118 10.5621 3.607951 32.258905 29.051571
2006-04-25 07:17:44 51°11.735 2°46.096 10.5662 3.6089 32.269038 28.984153
2006-04-25 07:17:50 51°11.728 2°46.062 10.5635 3.610058 32.279845 28.916734
2006-04-25 07:17:56 51°11.72 2°46.028 10.5637 3.611112 32.289606 28.849315
2006-04-25 07:18:00 51°11.715 2°46.006 10.565 3.61206 32.296896 28.748187
2006-04-25 07:18:06 51°11.708 2°45.973 10.5639 3.61206 32.296896 28.748187
2006-04-25 07:18:10 51°11.702 2°45.95 10.5666 3.613008 32.30632 28.647059
2006-04-25 07:18:15 51°11.696 2°45.922 10.5678 3.614061 32.316792 28.54593
2006-04-25 07:18:20 51°11.689 2°45.895 10.5704 3.614904 32.324458 28.478512
2006-04-25 07:18:24 51°11.684 2°45.873 10.5728 3.615325 32.329359 28.377383
2006-04-25 07:18:30 51°11.676 2°45.839 10.5732 3.616484 32.340167 28.377383
2006-04-25 07:18:35 51°11.67 2°45.812 10.5771 3.616484 32.340167 28.377383
2006-04-25 07:18:40 51°11.664 2°45.784 10.5776 3.617011 32.345403 28.309965
2006-04-25 07:18:46 51°11.658 2°45.75 10.5843 3.617748 32.352734 28.175127
2006-04-25 07:18:50 51°11.654 2°45.728 10.5821 3.61838 32.357593 28.107708
2006-04-25 07:18:56 51°11.648 2°45.694 10.5867 3.619118 32.362075 28.073999
2006-04-25 07:19:00 51°11.644 2°45.671 10.5892 3.620382 32.371791 28.00658
2006-04-25 07:19:06 51°11.638 2°45.637 10.5896 3.620382 32.371791 28.00658
2006-04-25 07:19:10 51°11.634 2°45.615 10.5916 3.621857 32.384314 27.905452
2006-04-25 07:19:16 51°11.628 2°45.581 10.5914 3.623437 32.39931 27.838033
2006-04-25 07:19:20 51°11.624 2°45.558 10.5925 3.626386 32.425781 27.770614
2006-04-25 07:19:24 51°11.619 2°45.536 10.5914 3.628283 32.443205 27.804324
2006-04-25 07:19:30 51°11.613 2°45.502 10.5916 3.629547 32.452917 27.804324
2006-04-25 07:19:36 51°11.606 2°45.469 10.5929 3.629547 32.452917 27.804324
2006-04-25 07:19:40 51°11.602 2°45.447 10.5933 3.631759 32.472768 27.770614
2006-04-25 07:19:46 51°11.595 2°45.414 10.5974 3.633655 32.490907 27.770614
2006-04-25 07:19:50 51°11.591 2°45.391 10.6002 3.634919 32.501331 27.838033
2006-04-25 07:19:56 51°11.583 2°45.358 10.6006 3.636815 32.518754 27.770614
2006-04-25 07:20:00 51°11.579 2°45.336 10.5981 3.638185 32.532371 27.770614
2006-04-25 07:20:04 51°11.574 2°45.314 10.6008 3.638185 32.532371 27.770614
2006-04-25 07:20:10 51°11.568 2°45.28 10.6016 3.639449 32.544942 27.736905
2006-04-25 07:20:15 51°11.562 2°45.253 10.5994 3.640503 32.553986 27.669486
2006-04-25 07:20:20 51°11.557 2°45.225 10.6028 3.641345 32.560934 27.703195
2006-04-25 07:20:26 51°11.551 2°45.191 10.5976 3.642925 32.574498 27.635777
2006-04-25 07:20:30 51°11.547 2°45.169 10.5969 3.644506 32.588062 27.568358
2006-04-25 07:20:35 51°11.541 2°45.141 10.5969 3.644506 32.588062 27.568358
2006-04-25 07:20:40 51°11.536 2°45.113 10.5939 3.646086 32.603059 27.534648
2006-04-25 07:20:46 51°11.529 2°45.08 10.5976 3.647139 32.612818 27.500939
2006-04-25 07:20:50 51°11.525 2°45.057 10.5964 3.647982 32.618329 27.43352
2006-04-25 07:20:55 51°11.52 2°45.029 10.6025 3.648825 32.628146 27.43352
2006-04-25 07:21:00 51°11.515 2°45.001 10.6003 3.649352 32.634102 27.399811
2006-04-25 07:21:04 51°11.511 2°44.979 10.5998 3.649352 32.634102 27.399811
2006-04-25 07:21:10 51°11.505 2°44.945 10.5982 3.649668 32.638681 27.399811
2006-04-25 07:21:16 51°11.499 2°44.911 10.6025 3.649878 32.643649 27.366101
2006-04-25 07:21:20 51°11.495 2°44.889 10.6007 3.650089 32.645027 27.332392
2006-04-25 07:21:26 51°11.489 2°44.855 10.6021 3.650932 32.65341 27.298683
2006-04-25 07:21:30 51°11.485 2°44.832 10.6002 3.654303 32.686228 27.264973
2006-04-25 07:21:36 51°11.478 2°44.799 10.6005 3.654303 32.686228 27.264973
2006-04-25 07:21:40 51°11.474 2°44.776 10.6021 3.657569 32.718001 27.231264
2006-04-25 07:21:46 51°11.468 2°44.742 10.6017 3.660835 32.749777 27.197554
2006-04-25 07:21:50 51°11.463 2°44.72 10.6058 3.663574 32.776314 27.197554
2006-04-25 07:21:56 51°11.457 2°44.686 10.608 3.664943 32.788501 27.163845
2006-04-25 07:22:00 51°11.453 2°44.664 10.6112 3.665786 32.796889 27.163845
2006-04-25 07:22:06 51°11.446 2°44.63 10.6077 3.665786 32.796889 27.163845
2006-04-25 07:22:10 51°11.442 2°44.607 10.6066 3.666102 32.801478 27.130136
2006-04-25 07:22:16 51°11.435 2°44.574 10.6057 3.666313 32.803575 27.163845
2006-04-25 07:22:20 51°11.431 2°44.551 10.606 3.666313 32.802853 27.096426
2006-04-25 07:22:23 51°11.428 2°44.534 10.6082 3.665786 32.795446 27.096426
2006-04-25 07:22:30 51°11.421 2°44.495 10.6101 3.665049 32.787386 27.096426
2006-04-25 07:22:36 51°11.415 2°44.461 10.6081 3.665049 32.787386 27.096426
2006-04-25 07:22:40 51°11.411 2°44.438 10.6078 3.664627 32.78103 27.029007
2006-04-25 07:22:46 51°11.405 2°44.404 10.6087 3.664838 32.782405 27.096426
2006-04-25 07:22:50 51°11.401 2°44.382 10.6128 3.664627 32.779588 27.029007
2006-04-25 07:22:55 51°11.396 2°44.354 10.6095 3.664943 32.784896 26.995298
2006-04-25 07:23:00 51°11.391 2°44.326 10.6129 3.665154 32.78555 27.029007
2006-04-25 07:23:06 51°11.385 2°44.292 10.616 3.665154 32.78555 27.029007
2006-04-25 07:23:10 51°11.381 2°44.269 10.6133 3.665891 32.792167 26.961589
2006-04-25 07:23:15 51°11.375 2°44.241 10.6149 3.666629 32.799505 26.961589
2006-04-25 07:23:20 51°11.37 2°44.213 10.6198 3.666839 32.801602 26.961589
2006-04-25 07:23:26 51°11.363 2°44.18 10.6169 3.667472 32.806449 26.961589
2006-04-25 07:23:30 51°11.359 2°44.157 10.6176 3.667893 32.809199 26.961589
2006-04-25 07:23:35 51°11.354 2°44.129 10.6166 3.667893 32.809199 26.961589
2006-04-25 07:23:40 51°11.348 2°44.101 10.6186 3.66842 32.812998 26.961589
2006-04-25 07:23:44 51°11.344 2°44.078 10.6151 3.668841 32.816469 26.995298
2006-04-25 07:23:50 51°11.338 2°44.044 10.6181 3.669157 32.819614 26.961589
2006-04-25 07:23:56 51°11.332 2°44.01 10.6221 3.669473 32.821316 26.961589
2006-04-25 07:24:00 51°11.328 2°43.988 10.6194 3.669578 32.820921 26.961589
2006-04-25 07:24:06 51°11.322 2°43.954 10.6225 3.669578 32.820921 26.961589
2006-04-25 07:24:10 51°11.317 2°43.931 10.6238 3.67 32.826557 26.927879
2006-04-25 07:24:16 51°11.311 2°43.898 10.6259 3.670316 32.82898 26.961589
2006-04-25 07:24:20 51°11.307 2°43.875 10.6257 3.670948 32.83527 26.927879
2006-04-25 07:24:23 51°11.304 2°43.858 10.6271 3.67158 32.840838 26.927879
2006-04-25 07:24:30 51°11.296 2°43.819 10.6273 3.672423 32.847058 26.961589
2006-04-25 07:24:36 51°11.289 2°43.786 10.6283 3.672423 32.847058 26.961589
2006-04-25 07:24:40 51°11.284 2°43.764 10.6307 3.673476 32.856819 26.89417
2006-04-25 07:24:46 51°11.278 2°43.73 10.6308 3.674319 32.864483 26.927879
2006-04-25 07:24:50 51°11.273 2°43.708 10.6288 3.674741 32.867231 26.86046
2006-04-25 07:24:55 51°11.268 2°43.68 10.6303 3.675478 32.873846 26.86046
2006-04-25 07:25:00 51°11.263 2°43.651 10.6317 3.676005 32.878365 26.86046
2006-04-25 07:25:06 51°11.257 2°43.617 10.6316 3.676005 32.878365 26.86046
2006-04-25 07:25:10 51°11.253 2°43.595 10.6304 3.676532 32.882884 26.826751
2006-04-25 07:25:15 51°11.248 2°43.567 10.6307 3.676742 32.883535 26.826751
2006-04-25 07:25:20 51°11.243 2°43.538 10.6338 3.677164 32.886282 26.793042
2006-04-25 07:25:23 51°11.24 2°43.521 10.6336 3.67769 32.890801 26.759332
2006-04-25 07:25:31 51°11.232 2°43.476 10.6317 3.678112 32.894994 26.793042
2006-04-25 07:25:35 51°11.228 2°43.454 10.635 3.678112 32.894994 26.793042
2006-04-25 07:25:40 51°11.223 2°43.425 10.635 3.678744 32.899837 26.725623
2006-04-25 07:25:44 51°11.219 2°43.403 10.6366 3.679692 32.909272 26.759332
2006-04-25 07:25:50 51°11.213 2°43.369 10.6366 3.680746 32.919031 26.725623
2006-04-25 07:25:56 51°11.206 2°43.336 10.6362 3.68201 32.931612 26.725623
2006-04-25 07:26:00 51°11.201 2°43.314 10.6384 3.683169 32.941696 26.725623
2006-04-25 07:26:06 51°11.195 2°43.28 10.6399 3.683169 32.941696 26.725623
2006-04-25 07:26:10 51°11.19 2°43.258 10.6436 3.684117 32.950408 26.691913
2006-04-25 07:26:15 51°11.184 2°43.23 10.6473 3.685065 32.959844 26.725623
2006-04-25 07:26:20 51°11.179 2°43.202 10.6473 3.685592 32.964362 26.691913
2006-04-25 07:26:26 51°11.174 2°43.168 10.6472 3.68654 32.972349 26.658204
2006-04-25 07:26:31 51°11.169 2°43.14 10.6473 3.687593 32.982834 26.658204
2006-04-25 07:26:36 51°11.165 2°43.112 10.6474 3.687593 32.982834 26.658204
2006-04-25 07:26:40 51°11.162 2°43.089 10.6512 3.68812 32.987351 26.691913
2006-04-25 07:26:44 51°11.159 2°43.066 10.6551 3.688752 32.991467 26.691913
2006-04-25 07:26:50 51°11.155 2°43.032 10.6509 3.689279 32.994535 26.624494
2006-04-25 07:26:56 51°11.15 2°42.997 10.6545 3.689806 32.996877 26.658204
2006-04-25 07:27:00 51°11.147 2°42.975 10.6573 3.690438 33.001717 26.658204
2006-04-25 07:27:06 51°11.143 2°42.94 10.6562 3.690438 33.001717 26.658204
2006-04-25 07:27:10 51°11.14 2°42.917 10.6576 3.690965 33.006233 26.624494
2006-04-25 07:27:15 51°11.137 2°42.889 10.6595 3.691281 33.007203 26.691913
2006-04-25 07:27:20 51°11.134 2°42.86 10.6593 3.691807 33.010994 26.624494
2006-04-25 07:27:24 51°11.131 2°42.837 10.6579 3.692229 33.014462 26.691913
2006-04-25 07:27:30 51°11.128 2°42.803 10.6609 3.692756 33.018978 26.658204
2006-04-25 07:27:35 51°11.126 2°42.774 10.66 3.692756 33.018978 26.658204
2006-04-25 07:27:40 51°11.124 2°42.745 10.6635 3.693388 33.023092 26.691913
2006-04-25 07:27:46 51°11.122 2°42.71 10.6645 3.693914 33.029058 26.725623
2006-04-25 07:27:51 51°11.12 2°42.681 10.6673 3.694652 33.034945 26.658204
2006-04-25 07:27:56 51°11.119 2°42.652 10.6696 3.695284 33.040509 26.725623
2006-04-25 07:28:00 51°11.118 2°42.629 10.6677 3.696337 33.04954 26.691913
2006-04-25 07:28:06 51°11.117 2°42.594 10.6669 3.696337 33.04954 26.691913
2006-04-25 07:28:10 51°11.116 2°42.57 10.6717 3.697075 33.056152 26.624494
2006-04-25 07:28:15 51°11.116 2°42.541 10.6711 3.697918 33.063086 26.658204
2006-04-25 07:28:20 51°11.116 2°42.512 10.6716 3.698761 33.070746 26.691913
2006-04-25 07:28:25 51°11.116 2°42.485 10.6755 3.699498 33.075905 26.658204
2006-04-25 07:28:30 51°11.116 2°42.459 10.6758 3.700446 33.083887 26.658204
2006-04-25 07:28:36 51°11.116 2°42.43 10.6712 3.700446 33.083887 26.658204
2006-04-25 07:28:40 51°11.116 2°42.411 10.6752 3.7015 33.093643 26.624494
2006-04-25 07:28:45 51°11.116 2°42.389 10.673 3.702659 33.10372 26.624494
2006-04-25 07:28:51 51°11.116 2°42.364 10.6718 3.703818 33.113798 26.658204
2006-04-25 07:28:56 51°11.116 2°42.343 10.674 3.705082 33.12565 26.691913
2006-04-25 07:29:00 51°11.116 2°42.327 10.673 3.70603 33.13363 26.590785
2006-04-25 07:29:04 51°11.116 2°42.312 10.6712 3.70603 33.13363 26.590785
2006-04-25 07:29:10 51°11.116 2°42.29 10.6705 3.707084 33.144114 26.624494
2006-04-25 07:29:16 51°11.115 2°42.27 10.671 3.707821 33.150725 26.624494
2006-04-25 07:29:20 51°11.115 2°42.257 10.6709 3.708137 33.15387 26.624494
2006-04-25 07:29:24 51°11.115 2°42.244 10.6745 3.708453 33.158471 26.624494
2006-04-25 07:29:30 51°11.114 2°42.226 10.6719 3.70898 33.162985 26.590785
2006-04-25 07:29:35 51°11.113 2°42.211 10.6712 3.70898 33.162985 26.590785
2006-04-25 07:29:40 51°11.112 2°42.197 10.6715 3.709085 33.163306 26.557076
2006-04-25 07:29:46 51°11.112 2°42.18 10.671 3.709296 33.167587 26.557076
2006-04-25 07:29:50 51°11.111 2°42.17 10.672 3.709401 33.168635 26.523366
2006-04-25 07:29:55 51°11.11 2°42.157 10.6722 3.709401 33.169364 26.523366
2006-04-25 07:30:00 51°11.11 2°42.145 10.678 3.709191 33.167267 26.557076
2006-04-25 07:30:06 51°11.109 2°42.131 10.6764 3.709191 33.167267 26.557076
2006-04-25 07:30:10 51°11.109 2°42.122 10.6736 3.709401 33.167907 26.489657
2006-04-25 07:30:15 51°11.109 2°42.111 10.6734 3.709612 33.171461 26.489657
2006-04-25 07:30:20 51°11.109 2°42.101 10.6732 3.709928 33.173878 26.489657
2006-04-25 07:30:24 51°11.109 2°42.093 10.6729 3.710244 33.177752 26.455947
2006-04-25 07:30:30 51°11.109 2°42.083 10.6732 3.71056 33.180169 26.422238
2006-04-25 07:30:35 51°11.109 2°42.077 10.6747 3.71056 33.180169 26.422238
2006-04-25 07:30:40 51°11.11 2°42.072 10.6768 3.710876 33.181858 26.455947
2006-04-25 07:30:45 51°11.11 2°42.069 10.6726 3.711192 33.184275 26.388529
2006-04-25 07:30:50 51°11.11 2°42.068 10.6784 3.711508 33.186692 26.422238
2006-04-25 07:30:56 51°11.11 2°42.067 10.6747 3.711825 33.191295 26.422238
2006-04-25 07:31:00 51°11.109 2°42.068 10.6775 3.71193 33.193073 26.422238
2006-04-25 07:31:04 51°11.109 2°42.068 10.6733 3.71193 33.193073 26.422238
2006-04-25 07:31:10 51°11.109 2°42.068 10.6746 3.71193 33.192344 26.422238
2006-04-25 07:31:16 51°11.109 2°42.069 10.677 3.712035 33.192664 26.422238
2006-04-25 07:31:20 51°11.109 2°42.069 10.6754 3.712351 33.195081 26.489657
2006-04-25 07:31:26 51°11.109 2°42.069 10.6724 3.712457 33.195401 26.489657
2006-04-25 07:31:31 51°11.109 2°42.069 10.673 3.712351 33.194352 26.793042
2006-04-25 07:31:36 51°11.109 2°42.07 10.6739 3.712351 33.194352 26.793042
2006-04-25 07:31:41 51°11.109 2°42.07 10.6743 3.712562 33.197178 26.826751
2006-04-25 07:31:46 51°11.109 2°42.07 10.6721 3.712983 33.202101 26.624494
2006-04-25 07:31:51 51°11.11 2°42.071 10.6731 3.713932 33.21081 26.557076
2006-04-25 07:31:56 51°11.11 2°42.071 10.6759 3.715196 33.224123 26.523366
2006-04-25 07:32:01 51°11.11 2°42.072 10.6738 3.716566 33.237757 26.523366
2006-04-25 07:32:06 51°11.11 2°42.072 10.6764 3.716566 33.237757 26.523366
2006-04-25 07:32:11 51°11.11 2°42.073 10.6766 3.717514 33.247926 26.489657
2006-04-25 07:32:15 51°11.11 2°42.073 10.6732 3.718357 33.257047 26.557076
2006-04-25 07:32:20 51°11.11 2°42.074 10.678 3.719094 33.26512 26.523366
2006-04-25 07:32:26 51°11.11 2°42.074 10.6773 3.719621 33.269635 26.489657
2006-04-25 07:32:30 51°11.11 2°42.075 10.6757 3.720253 33.275929 26.523366
2006-04-25 07:32:36 51°11.11 2°42.076 10.6752 3.720253 33.275929 26.523366
2006-04-25 07:32:41 51°11.11 2°42.076 10.6776 3.72078 33.280443 26.523366
2006-04-25 07:32:46 51°11.11 2°42.077 10.6796 3.721517 33.287786 26.489657
2006-04-25 07:32:51 51°11.11 2°42.077 10.6746 3.721939 33.292713 26.557076
2006-04-25 07:32:56 51°11.11 2°42.078 10.6786 3.722466 33.296497 26.523366
2006-04-25 07:33:00 51°11.11 2°42.078 10.6739 3.723098 33.302791 26.523366
2006-04-25 07:33:05 51°11.11 2°42.079 10.6762 3.723098 33.302791 26.523366
2006-04-25 07:33:10 51°11.11 2°42.079 10.6744 3.723203 33.303109 26.523366
2006-04-25 07:33:16 51°11.11 2°42.08 10.6759 3.723941 33.311184 26.523366
2006-04-25 07:33:20 51°11.11 2°42.08 10.6732 3.724783 33.318846 26.489657
2006-04-25 07:33:26 51°11.11 2°42.081 10.6774 3.725416 33.323678 26.523366
2006-04-25 07:33:30 51°11.11 2°42.082 10.6764 3.725521 33.325458 26.523366
2006-04-25 07:33:35 51°11.11 2°42.083 10.6732 3.725521 33.325458 26.523366
2006-04-25 07:33:40 51°11.11 2°42.083 10.6745 3.725732 33.32902 26.489657
2006-04-25 07:33:46 51°11.11 2°42.084 10.6792 3.725521 33.327653 26.489657
2006-04-25 07:33:50 51°11.11 2°42.085 10.6759 3.725205 33.325237 26.523366
2006-04-25 07:33:56 51°11.111 2°42.086 10.6786 3.724678 33.319991 26.489657
2006-04-25 07:34:00 51°11.111 2°42.086 10.6797 3.724362 33.316844 26.455947
2006-04-25 07:34:06 51°11.111 2°42.087 10.6809 3.724362 33.316844 26.455947
2006-04-25 07:34:10 51°11.111 2°42.088 10.6778 3.724362 33.316112 26.489657
2006-04-25 07:34:15 51°11.111 2°42.088 10.6769 3.723835 33.310135 26.422238
2006-04-25 07:34:20 51°11.111 2°42.089 10.678 3.723308 33.305621 26.489657
2006-04-25 07:34:26 51°11.111 2°42.09 10.6772 3.722887 33.300693 26.489657
2006-04-25 07:34:30 51°11.111 2°42.091 10.6786 3.722466 33.295035 26.489657
2006-04-25 07:34:35 51°11.111 2°42.091 10.6772 3.722466 33.295035 26.489657
2006-04-25 07:34:40 51°11.111 2°42.092 10.6771 3.722044 33.290108 26.489657
2006-04-25 07:34:46 51°11.111 2°42.093 10.6844 3.721728 33.28623 26.455947
2006-04-25 07:34:50 51°11.112 2°42.094 10.6792 3.721307 33.283496 26.489657
2006-04-25 07:34:55 51°11.112 2°42.095 10.6791 3.72078 33.278982 26.455947
2006-04-25 07:35:00 51°11.112 2°42.096 10.6768 3.720569 33.275423 26.455947
2006-04-25 07:35:04 51°11.112 2°42.096 10.6778 3.720569 33.275423 26.455947
2006-04-25 07:35:10 51°11.112 2°42.097 10.6785 3.720253 33.274468 26.455947
2006-04-25 07:35:15 51°11.112 2°42.098 10.6801 3.720253 33.275198 26.455947
2006-04-25 07:35:20 51°11.112 2°42.099 10.6768 3.720148 33.272688 26.455947
2006-04-25 07:35:25 51°11.112 2°42.099 10.6798 3.720042 33.270178 26.489657
2006-04-25 07:35:30 51°11.112 2°42.1 10.6811 3.719937 33.26986 26.455947
2006-04-25 07:35:36 51°11.112 2°42.101 10.6784 3.719937 33.26986 26.455947
2006-04-25 07:35:40 51°11.112 2°42.102 10.6781 3.71941 33.264615 26.523366
2006-04-25 07:35:46 51°11.112 2°42.103 10.6792 3.719305 33.265027 26.489657
2006-04-25 07:35:50 51°11.112 2°42.103 10.6766 3.719199 33.263248 26.455947
2006-04-25 07:35:56 51°11.112 2°42.104 10.6766 3.718989 33.26115 26.489657
2006-04-25 07:36:00 51°11.112 2°42.105 10.6821 3.718778 33.258322 26.489657
2006-04-25 07:36:06 51°11.112 2°42.106 10.6793 3.718778 33.258322 26.489657
2006-04-25 07:36:10 51°11.112 2°42.107 10.6809 3.718883 33.259371 26.455947
2006-04-25 07:36:15 51°11.112 2°42.108 10.6846 3.718567 33.256955 26.422238
2006-04-25 07:36:20 51°11.112 2°42.109 10.6827 3.718567 33.255495 26.489657
2006-04-25 07:36:24 51°11.112 2°42.109 10.6837 3.718357 33.254857 26.455947
2006-04-25 07:36:30 51°11.112 2°42.11 10.6807 3.718041 33.25244 26.422238
2006-04-25 07:36:35 51°11.113 2°42.112 10.6837 3.718041 33.25244 26.422238
2006-04-25 07:36:40 51°11.113 2°42.113 10.6827 3.718041 33.25244 26.455947
2006-04-25 07:36:46 51°11.113 2°42.114 10.6811 3.718146 33.252029 26.455947
2006-04-25 07:36:50 51°11.113 2°42.114 10.6843 3.718146 33.250569 26.455947
2006-04-25 07:36:55 51°11.113 2°42.115 10.6844 3.718251 33.250888 26.455947
2006-04-25 07:37:00 51°11.113 2°42.116 10.6866 3.718146 33.24911 26.523366
2006-04-25 07:37:06 51°11.112 2°42.117 10.6842 3.718146 33.24911 26.523366
2006-04-25 07:37:10 51°11.112 2°42.117 10.684 3.718251 33.250158 26.489657
2006-04-25 07:37:15 51°11.112 2°42.118 10.6819 3.718251 33.250888 26.489657
2006-04-25 07:37:20 51°11.113 2°42.119 10.6861 3.718146 33.249839 26.455947
2006-04-25 07:37:26 51°11.113 2°42.12 10.6856 3.718041 33.248061 26.455947
2006-04-25 07:37:31 51°11.113 2°42.121 10.6835 3.717935 33.247012 26.455947
2006-04-25 07:37:36 51°11.113 2°42.122 10.6827 3.717935 33.247012 26.455947
2006-04-25 07:37:40 51°11.113 2°42.123 10.6862 3.718146 33.24838 26.455947
2006-04-25 07:37:45 51°11.114 2°42.124 10.684 3.718041 33.247331 26.489657
2006-04-25 07:37:51 51°11.114 2°42.125 10.6845 3.71783 33.245963 26.455947
2006-04-25 07:37:56 51°11.114 2°42.126 10.6848 3.717935 33.245553 26.455947
2006-04-25 07:38:00 51°11.114 2°42.127 10.6871 3.71783 33.245234 26.455947
2006-04-25 07:38:06 51°11.114 2°42.128 10.6849 3.71783 33.245234 26.455947
2006-04-25 07:38:10 51°11.115 2°42.129 10.6887 3.717514 33.242088 26.523366
2006-04-25 07:38:16 51°11.115 2°42.13 10.689 3.717514 33.242817 26.489657
2006-04-25 07:38:20 51°11.115 2°42.131 10.6895 3.717408 33.241769 26.455947
2006-04-25 07:38:26 51°11.115 2°42.132 10.69 3.717408 33.241769 26.489657
2006-04-25 07:38:30 51°11.115 2°42.133 10.6898 3.717198 33.238212 26.455947
2006-04-25 07:38:36 51°11.115 2°42.134 10.6892 3.717198 33.238212 26.455947
2006-04-25 07:38:40 51°11.116 2°42.135 10.691 3.717198 33.238212 26.455947
2006-04-25 07:38:46 51°11.116 2°42.136 10.6915 3.717198 33.237483 26.455947
2006-04-25 07:38:50 51°11.116 2°42.137 10.6913 3.717408 33.23885 26.455947
2006-04-25 07:38:55 51°11.116 2°42.138 10.6911 3.717198 33.235294 26.455947
2006-04-25 07:39:00 51°11.116 2°42.139 10.689 3.716987 33.233197 26.455947
2006-04-25 07:39:06 51°11.117 2°42.14 10.6914 3.716987 33.233197 26.455947
2006-04-25 07:39:10 51°11.117 2°42.141 10.6893 3.716987 33.233197 26.523366
2006-04-25 07:39:15 51°11.117 2°42.141 10.6878 3.717198 33.235294 26.489657
2006-04-25 07:39:20 51°11.118 2°42.142 10.6905 3.716987 33.232468 26.489657
2006-04-25 07:39:26 51°11.118 2°42.144 10.6935 3.716987 33.231009 26.489657
2006-04-25 07:39:30 51°11.118 2°42.145 10.6937 3.717092 33.232057 26.523366
2006-04-25 07:39:36 51°11.118 2°42.146 10.6929 3.717092 33.232057 26.523366
2006-04-25 07:39:40 51°11.118 2°42.146 10.6909 3.716882 33.23069 26.489657
2006-04-25 07:39:46 51°11.119 2°42.148 10.6947 3.716882 33.23069 26.455947
2006-04-25 07:39:51 51°11.119 2°42.149 10.6904 3.716882 33.23069 26.523366
2006-04-25 07:39:56 51°11.119 2°42.15 10.693 3.716881 33.229231 26.557076
2006-04-25 07:40:00 51°11.119 2°42.151 10.6924 3.716776 33.227454 26.489657
2006-04-25 07:40:06 51°11.12 2°42.152 10.6949 3.716776 33.227454 26.489657
2006-04-25 07:40:10 51°11.12 2°42.153 10.6954 3.716776 33.228183 26.489657
2006-04-25 07:40:16 51°11.12 2°42.154 10.6929 3.716776 33.227454 26.523366
2006-04-25 07:40:20 51°11.12 2°42.155 10.6905 3.716882 33.229961 26.489657
2006-04-25 07:40:26 51°11.12 2°42.156 10.6929 3.716671 33.227864 26.523366
2006-04-25 07:40:30 51°11.12 2°42.157 10.6979 3.716882 33.229961 26.557076
2006-04-25 07:40:36 51°11.121 2°42.158 10.6938 3.716882 33.229961 26.557076
2006-04-25 07:40:40 51°11.121 2°42.16 10.6936 3.716776 33.227454 26.523366
2006-04-25 07:40:46 51°11.122 2°42.161 10.6954 3.716776 33.226724 26.489657
2006-04-25 07:40:50 51°11.122 2°42.162 10.6946 3.716881 33.229231 26.523366
2006-04-25 07:40:56 51°11.122 2°42.164 10.6944 3.716671 33.226405 26.523366
2006-04-25 07:41:01 51°11.123 2°42.165 10.6958 3.716881 33.227773 26.557076
2006-04-25 07:41:06 51°11.123 2°42.166 10.694 3.716881 33.227773 26.557076
2006-04-25 07:41:10 51°11.123 2°42.167 10.6956 3.716881 33.227044 26.523366
2006-04-25 07:41:15 51°11.123 2°42.169 10.6916 3.716776 33.225995 26.523366
2006-04-25 07:41:20 51°11.123 2°42.17 10.6954 3.716671 33.225676 26.557076
2006-04-25 07:41:26 51°11.124 2°42.172 10.6934 3.716565 33.225357 26.557076
2006-04-25 07:41:30 51°11.124 2°42.173 10.6911 3.716776 33.226724 26.590785
2006-04-25 07:41:35 51°11.124 2°42.174 10.6896 3.716776 33.226724 26.590785
2006-04-25 07:41:40 51°11.124 2°42.175 10.6918 3.716671 33.224218 26.523366
2006-04-25 07:41:46 51°11.124 2°42.177 10.6913 3.716671 33.225676 26.557076
2006-04-25 07:41:50 51°11.124 2°42.177 10.6908 3.716671 33.224947 26.557076
2006-04-25 07:41:56 51°11.125 2°42.179 10.6949 3.716565 33.223899 26.624494
2006-04-25 07:42:00 51°11.125 2°42.18 10.691 3.716671 33.225676 26.590785
2006-04-25 07:42:06 51°11.125 2°42.182 10.6935 3.716671 33.225676 26.590785
2006-04-25 07:42:11 51°11.125 2°42.183 10.6907 3.71646 33.225038 26.624494
2006-04-25 07:42:16 51°11.125 2°42.184 10.6913 3.71646 33.225767 26.624494
2006-04-25 07:42:20 51°11.126 2°42.185 10.6895 3.716355 33.22326 26.590785
2006-04-25 07:42:25 51°11.126 2°42.186 10.6931 3.71646 33.224308 26.624494
2006-04-25 07:42:31 51°11.127 2°42.188 10.6974 3.716355 33.22326 26.624494
2006-04-25 07:42:36 51°11.127 2°42.19 10.6895 3.716355 33.22326 26.624494
2006-04-25 07:42:40 51°11.127 2°42.191 10.6911 3.71646 33.224308 26.658204
2006-04-25 07:42:46 51°11.127 2°42.192 10.6893 3.716671 33.225676 26.624494
2006-04-25 07:42:50 51°11.127 2°42.194 10.6917 3.71646 33.225767 26.624494
2006-04-25 07:42:55 51°11.128 2°42.195 10.6884 3.71646 33.225767 26.658204
2006-04-25 07:43:00 51°11.128 2°42.197 10.6894 3.712562 33.185522 26.624494
2006-04-25 07:43:04 51°11.128 2°42.198 10.69 3.712562 33.185522 26.624494
2006-04-25 07:43:10 51°11.128 2°42.2 10.6926 3.716671 33.224947 26.658204
2006-04-25 07:43:15 51°11.129 2°42.201 10.6897 3.716565 33.226086 26.658204
2006-04-25 07:43:21 51°11.129 2°42.203 10.6906 3.716249 33.22367 26.658204
2006-04-25 07:43:26 51°11.129 2°42.204 10.6891 3.712562 33.187706 26.691913
2006-04-25 07:43:30 51°11.129 2°42.206 10.6943 3.714458 33.207305 26.658204
2006-04-25 07:43:36 51°11.13 2°42.208 10.6906 3.714458 33.207305 26.658204
2006-04-25 07:43:40 51°11.13 2°42.209 10.693 3.715407 33.21747 26.691913
2006-04-25 07:43:46 51°11.13 2°42.211 10.6895 3.71646 33.226496 26.691913
2006-04-25 07:43:50 51°11.13 2°42.212 10.6898 3.715933 33.220525 26.725623
2006-04-25 07:43:56 51°11.131 2°42.214 10.6915 3.71193 33.181417 26.725623
2006-04-25 07:44:00 51°11.131 2°42.215 10.6893 3.71646 33.226496 26.691913
2006-04-25 07:44:06 51°11.131 2°42.217 10.6895 3.71646 33.226496 26.691913
2006-04-25 07:44:10 51°11.131 2°42.218 10.6919 3.716565 33.228274 26.725623
2006-04-25 07:44:15 51°11.131 2°42.219 10.6933 3.716565 33.228274 26.725623
2006-04-25 07:44:20 51°11.132 2°42.221 10.6897 3.716565 33.228274 26.759332
2006-04-25 07:44:25 51°11.132 2°42.223 10.6897 3.716355 33.226906 26.759332
2006-04-25 07:44:30 51°11.132 2°42.224 10.6923 3.714564 33.207625 26.691913
2006-04-25 07:44:36 51°11.133 2°42.226 10.6917 3.714564 33.207625 26.691913
2006-04-25 07:44:40 51°11.133 2°42.228 10.6907 3.712457 33.188115 26.725623
2006-04-25 07:44:45 51°11.133 2°42.229 10.693 3.713299 33.195773 26.725623
2006-04-25 07:44:50 51°11.133 2°42.231 10.6898 3.712878 33.19158 26.793042
2006-04-25 07:44:56 51°11.134 2°42.233 10.6958 3.71646 33.226496 26.759332
2006-04-25 07:45:00 51°11.134 2°42.234 10.6911 3.715723 33.219886 26.793042
2006-04-25 07:45:06 51°11.134 2°42.236 10.693 3.715723 33.219886 26.793042
2006-04-25 07:45:10 51°11.134 2°42.237 10.6905 3.716039 33.22376 26.793042
2006-04-25 07:45:15 51°11.135 2°42.239 10.6959 3.715301 33.216421 26.793042
2006-04-25 07:45:20 51°11.135 2°42.24 10.6981 3.715723 33.219886 26.793042
2006-04-25 07:45:26 51°11.135 2°42.243 10.6947 3.715933 33.221983 26.759332
2006-04-25 07:45:30 51°11.136 2°42.244 10.689 3.710876 33.171663 26.759332
2006-04-25 07:45:35 51°11.136 2°42.245 10.6903 3.710876 33.171663 26.759332
2006-04-25 07:45:40 51°11.136 2°42.247 10.6894 3.715617 33.218838 26.793042
2006-04-25 07:45:46 51°11.136 2°42.249 10.6902 3.711087 33.173031 26.826751
2006-04-25 07:45:50 51°11.137 2°42.251 10.6877 3.712351 33.184882 26.793042
2006-04-25 07:45:55 51°11.137 2°42.252 10.6936 3.710876 33.168751 26.86046
2006-04-25 07:46:00 51°11.137 2°42.254 10.6901 3.711824 33.178912 26.793042
2006-04-25 07:46:04 51°11.137 2°42.255 10.6912 3.711824 33.178912 26.793042
2006-04-25 07:46:11 51°11.138 2°42.258 10.6924 3.715407 33.215283 26.793042
2006-04-25 07:46:16 51°11.138 2°42.259 10.6919 3.715196 33.213915 26.826751
2006-04-25 07:46:20 51°11.138 2°42.261 10.6896 3.711298 33.1744 26.86046
2006-04-25 07:46:26 51°11.138 2°42.263 10.6935 3.709928 33.162229 26.826751
2006-04-25 07:46:30 51°11.139 2°42.264 10.6931 3.712773 33.192717 26.86046
2006-04-25 07:46:36 51°11.139 2°42.266 10.6897 3.712773 33.192717 26.86046
2006-04-25 07:46:40 51°11.139 2°42.267 10.6906 3.711614 33.179729 26.86046
2006-04-25 07:46:46 51°11.139 2°42.269 10.6885 3.712983 33.192628 26.86046
2006-04-25 07:46:50 51°11.139 2°42.27 10.6915 3.711824 33.180369 26.86046
2006-04-25 07:46:56 51°11.14 2°42.273 10.6902 3.71214 33.183513 26.89417
2006-04-25 07:47:00 51°11.14 2°42.274 10.695 3.709507 33.158036 26.86046
2006-04-25 07:47:06 51°11.141 2°42.276 10.6917 3.709507 33.158036 26.86046
2006-04-25 07:47:10 51°11.141 2°42.278 10.6937 3.712035 33.183193 26.86046
2006-04-25 07:47:16 51°11.141 2°42.28 10.6951 3.714353 33.206985 26.86046
2006-04-25 07:47:20 51°11.142 2°42.281 10.6946 3.714037 33.203111 26.89417
2006-04-25 07:47:23 51°11.142 2°42.282 10.6929 3.714142 33.204889 26.89417
2006-04-25 07:47:30 51°11.142 2°42.284 10.6904 3.714142 33.20416 26.86046
2006-04-25 07:47:36 51°11.143 2°42.287 10.6914 3.714142 33.20416 26.86046
2006-04-25 07:47:40 51°11.144 2°42.288 10.697 3.714142 33.202702 26.86046
2006-04-25 07:47:46 51°11.146 2°42.29 10.6911 3.714248 33.204479 26.927879
2006-04-25 07:47:50 51°11.148 2°42.291 10.6904 3.713932 33.201334 26.927879
2006-04-25 07:47:55 51°11.15 2°42.291 10.6881 3.714248 33.204479 26.89417
2006-04-25 07:48:00 51°11.152 2°42.292 10.6926 3.714248 33.205208 26.927879
2006-04-25 07:48:04 51°11.153 2°42.292 10.6898 3.714248 33.205208 26.927879
2006-04-25 07:48:10 51°11.156 2°42.293 10.694 3.714142 33.204889 26.89417
2006-04-25 07:48:16 51°11.159 2°42.292 10.6954 3.714037 33.203111 26.927879
2006-04-25 07:48:20 51°11.161 2°42.291 10.6967 3.714142 33.203431 26.927879
2006-04-25 07:48:26 51°11.165 2°42.29 10.6974 3.714142 33.205617 26.927879
2006-04-25 07:48:30 51°11.167 2°42.289 10.6968 3.713932 33.202792 26.961589
2006-04-25 07:48:35 51°11.169 2°42.288 10.6974 3.713932 33.202792 26.961589
2006-04-25 07:48:40 51°11.172 2°42.285 10.6942 3.713826 33.201743 26.961589
2006-04-25 07:48:46 51°11.175 2°42.282 10.6978 3.714037 33.20384 26.961589
2006-04-25 07:48:50 51°11.177 2°42.28 10.6942 3.714353 33.206257 26.927879
2006-04-25 07:48:56 51°11.179 2°42.276 10.693 3.714564 33.206167 26.995298
2006-04-25 07:49:00 51°11.181 2°42.274 10.6963 3.714985 33.209632 26.961589
2006-04-25 07:49:03 51°11.182 2°42.272 10.6935 3.714985 33.209632 26.961589
2006-04-25 07:49:11 51°11.185 2°42.265 10.6957 3.715406 33.213096 27.029007
2006-04-25 07:49:16 51°11.186 2°42.261 10.6906 3.715723 33.216241 26.995298
2006-04-25 07:49:20 51°11.187 2°42.257 10.6906 3.715723 33.216241 27.029007
2006-04-25 07:49:26 51°11.188 2°42.252 10.6889 3.715617 33.21665 27.029007
2006-04-25 07:49:30 51°11.189 2°42.248 10.6909 3.715617 33.217379 27.062717
2006-04-25 07:49:36 51°11.19 2°42.242 10.6938 3.715617 33.217379 27.062717
2006-04-25 07:49:40 51°11.19 2°42.239 10.6922 3.715512 33.216331 27.062717
2006-04-25 07:49:43 51°11.19 2°42.236 10.6972 3.715723 33.21697 27.029007
2006-04-25 07:49:50 51°11.189 2°42.229 10.692 3.71509 33.211409 27.096426
2006-04-25 07:49:56 51°11.188 2°42.223 10.6882 3.714774 33.209721 27.062717
2006-04-25 07:50:01 51°11.186 2°42.219 10.687 3.714248 33.205937 27.096426
2006-04-25 07:50:06 51°11.185 2°42.214 10.6913 3.714248 33.205937 27.096426
2006-04-25 07:50:10 51°11.183 2°42.211 10.6871 3.713932 33.202063 27.062717
2006-04-25 07:50:16 51°11.181 2°42.207 10.6887 3.713932 33.202792 27.096426
2006-04-25 07:50:20 51°11.178 2°42.204 10.6875 3.713932 33.201334 27.096426
2006-04-25 07:50:26 51°11.175 2°42.201 10.6906 3.713615 33.198189 27.062717
2006-04-25 07:50:30 51°11.173 2°42.199 10.6929 3.71351 33.198598 27.096426
2006-04-25 07:50:36 51°11.169 2°42.196 10.6929 3.71351 33.198598 27.096426
2006-04-25 07:50:40 51°11.166 2°42.194 10.6909 3.713405 33.198279 27.096426
2006-04-25 07:50:46 51°11.162 2°42.192 10.6866 3.712983 33.194085 27.130136
2006-04-25 07:50:50 51°11.159 2°42.19 10.684 3.713299 33.19723 27.130136
2006-04-25 07:50:55 51°11.155 2°42.188 10.6872 3.713405 33.198279 27.130136
2006-04-25 07:51:00 51°11.15 2°42.187 10.6836 3.713826 33.201015 27.130136
2006-04-25 07:51:03 51°11.148 2°42.186 10.6862 3.713826 33.201015 27.130136
2006-04-25 07:51:11 51°11.141 2°42.182 10.6953 3.714142 33.203431 27.130136
2006-04-25 07:51:16 51°11.137 2°42.18 10.6961 3.714669 33.207944 27.130136
2006-04-25 07:51:20 51°11.133 2°42.177 10.6905 3.714985 33.211818 27.130136
2006-04-25 07:51:26 51°11.128 2°42.173 10.6885 3.71509 33.213595 27.163845
2006-04-25 07:51:30 51°11.125 2°42.17 10.6911 3.715407 33.216741 27.130136
2006-04-25 07:51:36 51°11.12 2°42.166 10.6864 3.715407 33.216741 27.130136
2006-04-25 07:51:40 51°11.117 2°42.162 10.6902 3.715407 33.21747 27.163845
2006-04-25 07:51:43 51°11.115 2°42.159 10.6824 3.715407 33.216741 27.163845
2006-04-25 07:51:50 51°11.11 2°42.153 10.6843 3.715617 33.21665 27.130136
2006-04-25 07:51:56 51°11.106 2°42.146 10.6875 3.715617 33.215922 27.130136
2006-04-25 07:52:01 51°11.103 2°42.141 10.6831 3.715933 33.219796 27.096426
2006-04-25 07:52:06 51°11.1 2°42.135 10.6836 3.715933 33.219796 27.096426
2006-04-25 07:52:10 51°11.099 2°42.13 10.6851 3.716249 33.222941 27.130136
2006-04-25 07:52:16 51°11.096 2°42.122 10.6848 3.717198 33.233835 27.163845
2006-04-25 07:52:20 51°11.094 2°42.117 10.6821 3.718357 33.246099 27.163845
2006-04-25 07:52:26 51°11.093 2°42.11 10.687 3.719305 33.254806 27.163845
2006-04-25 07:52:30 51°11.092 2°42.105 10.6841 3.720253 33.267164 27.163845
2006-04-25 07:52:36 51°11.091 2°42.097 10.6816 3.720253 33.267164 27.163845
2006-04-25 07:52:40 51°11.09 2°42.092 10.6837 3.72099 33.274505 27.130136
2006-04-25 07:52:46 51°11.09 2°42.084 10.6865 3.722044 33.286454 27.130136
2006-04-25 07:52:50 51°11.089 2°42.08 10.6866 3.72236 33.290332 27.130136
2006-04-25 07:52:56 51°11.09 2°42.074 10.6865 3.722676 33.293478 27.096426
2006-04-25 07:53:00 51°11.089 2°42.071 10.6873 3.722571 33.292429 27.096426
2006-04-25 07:53:06 51°11.09 2°42.068 10.6867 3.722571 33.292429 27.096426
2006-04-25 07:53:10 51°11.09 2°42.066 10.6868 3.722571 33.292429 27.096426
2006-04-25 07:53:16 51°11.091 2°42.065 10.6899 3.72236 33.290332 27.163845
2006-04-25 07:53:20 51°11.091 2°42.065 10.6876 3.722149 33.287503 27.130136
2006-04-25 07:53:25 51°11.091 2°42.066 10.6864 3.721939 33.284675 27.130136
2006-04-25 07:53:31 51°11.092 2°42.066 10.6895 3.721517 33.279749 27.130136
2006-04-25 07:53:36 51°11.092 2°42.067 10.6894 3.721517 33.279749 27.130136
2006-04-25 07:53:40 51°11.092 2°42.068 10.6905 3.721201 33.277333 27.130136
2006-04-25 07:53:45 51°11.093 2°42.069 10.69 3.72099 33.275236 27.163845
2006-04-25 07:53:51 51°11.093 2°42.07 10.6877 3.72099 33.273775 27.130136
2006-04-25 07:53:56 51°11.094 2°42.071 10.6903 3.721201 33.275872 27.130136
2006-04-25 07:54:00 51°11.094 2°42.072 10.6882 3.721307 33.277651 27.130136
2006-04-25 07:54:06 51°11.095 2°42.074 10.6869 3.721307 33.277651 27.130136
2006-04-25 07:54:10 51°11.095 2°42.075 10.6882 3.721623 33.279337 27.163845
2006-04-25 07:54:16 51°11.096 2°42.077 10.6909 3.721833 33.281434 27.197554
2006-04-25 07:54:20 51°11.096 2°42.079 10.6923 3.722044 33.283532 27.231264
2006-04-25 07:54:26 51°11.097 2°42.081 10.6885 3.722149 33.286042 27.163845
2006-04-25 07:54:30 51°11.097 2°42.082 10.6844 3.72236 33.288139 27.130136
2006-04-25 07:54:36 51°11.098 2°42.084 10.6869 3.72236 33.288139 27.130136
2006-04-25 07:54:40 51°11.098 2°42.086 10.6873 3.722782 33.293066 27.231264
2006-04-25 07:54:46 51°11.099 2°42.088 10.6897 3.722887 33.294114 27.197554
2006-04-25 07:54:51 51°11.099 2°42.09 10.6874 3.723098 33.296212 27.197554
2006-04-25 07:54:56 51°11.099 2°42.092 10.6849 3.723414 33.297897 27.231264
2006-04-25 07:55:00 51°11.1 2°42.093 10.6854 3.72373 33.301044 27.197554
2006-04-25 07:55:06 51°11.1 2°42.095 10.6852 3.72373 33.301044 27.197554
2006-04-25 07:55:11 51°11.101 2°42.098 10.6913 3.724046 33.304921 27.231264
2006-04-25 07:55:16 51°11.101 2°42.1 10.6861 3.724257 33.307019 27.231264
2006-04-25 07:55:20 51°11.102 2°42.101 10.6848 3.724362 33.308799 27.231264
2006-04-25 07:55:26 51°11.103 2°42.104 10.684 3.724678 33.311946 27.231264
2006-04-25 07:55:31 51°11.103 2°42.106 10.6867 3.724783 33.313726 27.264973
2006-04-25 07:55:36 51°11.104 2°42.108 10.6853 3.724783 33.313726 27.264973
2006-04-25 07:55:40 51°11.104 2°42.11 10.6855 3.725099 33.317604 27.264973
2006-04-25 07:55:46 51°11.105 2°42.112 10.6844 3.724889 33.315506 27.264973
2006-04-25 07:55:50 51°11.105 2°42.114 10.693 3.725205 33.317922 27.197554
2006-04-25 07:55:55 51°11.105 2°42.116 10.6873 3.725521 33.322532 27.197554
2006-04-25 07:56:00 51°11.106 2°42.118 10.6883 3.72531 33.321165 27.231264
2006-04-25 07:56:06 51°11.106 2°42.121 10.689 3.72531 33.321165 27.231264
2006-04-25 07:56:10 51°11.107 2°42.123 10.6904 3.725416 33.322215 27.231264
2006-04-25 07:56:16 51°11.107 2°42.125 10.6839 3.725837 33.326411 27.264973
2006-04-25 07:56:20 51°11.108 2°42.127 10.6849 3.725942 33.328192 27.197554
2006-04-25 07:56:25 51°11.108 2°42.129 10.6881 3.726364 33.330193 27.264973
2006-04-25 07:56:30 51°11.109 2°42.132 10.6862 3.726785 33.334389 27.197554
2006-04-25 07:56:36 51°11.109 2°42.135 10.6852 3.726785 33.334389 27.197554
2006-04-25 07:56:40 51°11.11 2°42.137 10.6837 3.727101 33.336805 27.231264
2006-04-25 07:56:46 51°11.111 2°42.139 10.6837 3.727417 33.339952 27.298683
2006-04-25 07:56:50 51°11.111 2°42.141 10.6848 3.727733 33.343832 27.231264
2006-04-25 07:56:56 51°11.112 2°42.144 10.6846 3.728155 33.349492 27.264973
2006-04-25 07:57:00 51°11.112 2°42.146 10.6878 3.728576 33.352225 27.264973
2006-04-25 07:57:06 51°11.112 2°42.149 10.6895 3.728576 33.352225 27.264973
2006-04-25 07:57:11 51°11.113 2°42.151 10.6943 3.728682 33.354006 27.264973
2006-04-25 07:57:16 51°11.113 2°42.153 10.6965 3.728998 33.356422 27.264973
2006-04-25 07:57:20 51°11.114 2°42.155 10.7017 3.729103 33.358203 27.264973
2006-04-25 07:57:26 51°11.114 2°42.158 10.7006 3.729314 33.360302 27.231264
2006-04-25 07:57:30 51°11.114 2°42.16 10.7025 3.729525 33.363132 27.264973
2006-04-25 07:57:36 51°11.115 2°42.163 10.7024 3.729525 33.363132 27.264973
2006-04-25 07:57:40 51°11.115 2°42.165 10.7024 3.72963 33.363449 27.264973
2006-04-25 07:57:46 51°11.116 2°42.168 10.7008 3.729946 33.3644 27.231264
2006-04-25 07:57:51 51°11.116 2°42.17 10.7036 3.730157 33.363569 27.231264
2006-04-25 07:57:56 51°11.117 2°42.173 10.702 3.730578 33.36264 27.231264
2006-04-25 07:58:00 51°11.117 2°42.174 10.7029 3.730578 33.361907 27.264973
2006-04-25 07:58:06 51°11.118 2°42.177 10.705 3.730578 33.361907 27.264973
2006-04-25 07:58:10 51°11.118 2°42.179 10.7004 3.730789 33.362541 27.264973
2006-04-25 07:58:16 51°11.119 2°42.182 10.7041 3.730894 33.362858 27.197554
2006-04-25 07:58:20 51°11.119 2°42.184 10.7022 3.730789 33.361809 27.231264
2006-04-25 07:58:24 51°11.119 2°42.186 10.7009 3.730683 33.36076 27.163845